<?xml version="1.0" encoding="UTF-8" standalone="no" ?>
<gpx xmlns="http://www.topografix.com/GPX/1/1" xmlns:xsi="http://www.w3.org/2001/XMLSchema-instance" xsi:schemaLocation="http://www.topografix.com/GPX/1/1 http://www.topografix.com/GPX/1/1/gpx.xsd" version="1.1" creator="VisuGPX - https://www.visugpx.com">
  <metadata>
    <name>Aravis-Tête Pelouse-3 Combes 1 Confin (Rando-ski)</name>
    <desc><![CDATA[Que de bonheur de retrouver les combes des Aravis, neige abondante mais croutée (5 milimètres de glace vitrifiée).
3 Combes c'est la montée dans Bella Cha (le fond de la combe est magnifique !), traversée du col et descente dans la combe du grand Crêt (300m), puis remontée vers le Trou de la mouche. En traversant par le trou de la mouche on arrive dans Paccaly que nous descendrons jusqu'au retour parking. Je recommande ce bel itinéraire pour skieurs confirmés, varié et soutenu sans pente supérieure à 35°.]]></desc>
  </metadata>
  <trk>
    <name><![CDATA[Tracé actuel: 21 FEV 2016 08:20]]></name>
    <trkseg>
      <trkpt lat="45.924" lon="6.4834">
        <ele>1391.65</ele>
        <time>2016-02-21T07:21:21Z</time>
      </trkpt>
      <trkpt lat="45.92398" lon="6.48339">
        <ele>1422.41</ele>
        <time>2016-02-21T07:21:51Z</time>
      </trkpt>
      <trkpt lat="45.92399" lon="6.48336">
        <ele>1435.87</ele>
        <time>2016-02-21T07:22:21Z</time>
      </trkpt>
      <trkpt lat="45.92398" lon="6.48338">
        <ele>1441.15</ele>
        <time>2016-02-21T07:22:51Z</time>
      </trkpt>
      <trkpt lat="45.92399" lon="6.48335">
        <ele>1442.11</ele>
        <time>2016-02-21T07:23:21Z</time>
      </trkpt>
      <trkpt lat="45.92398" lon="6.48334">
        <ele>1442.11</ele>
        <time>2016-02-21T07:23:51Z</time>
      </trkpt>
      <trkpt lat="45.92398" lon="6.48336">
        <ele>1442.11</ele>
        <time>2016-02-21T07:24:21Z</time>
      </trkpt>
      <trkpt lat="45.92399" lon="6.48338">
        <ele>1442.11</ele>
        <time>2016-02-21T07:24:51Z</time>
      </trkpt>
      <trkpt lat="45.92399" lon="6.48337">
        <ele>1442.11</ele>
        <time>2016-02-21T07:25:21Z</time>
      </trkpt>
      <trkpt lat="45.92399" lon="6.48337">
        <ele>1442.11</ele>
        <time>2016-02-21T07:25:51Z</time>
      </trkpt>
      <trkpt lat="45.924" lon="6.48339">
        <ele>1442.11</ele>
        <time>2016-02-21T07:26:21Z</time>
      </trkpt>
      <trkpt lat="45.92401" lon="6.48338">
        <ele>1442.11</ele>
        <time>2016-02-21T07:26:51Z</time>
      </trkpt>
      <trkpt lat="45.92399" lon="6.48337">
        <ele>1442.11</ele>
        <time>2016-02-21T07:27:21Z</time>
      </trkpt>
      <trkpt lat="45.92399" lon="6.48337">
        <ele>1441.63</ele>
        <time>2016-02-21T07:27:51Z</time>
      </trkpt>
      <trkpt lat="45.92398" lon="6.48337">
        <ele>1442.11</ele>
        <time>2016-02-21T07:28:21Z</time>
      </trkpt>
      <trkpt lat="45.92397" lon="6.48336">
        <ele>1442.6</ele>
        <time>2016-02-21T07:28:51Z</time>
      </trkpt>
      <trkpt lat="45.92396" lon="6.48336">
        <ele>1442.11</ele>
        <time>2016-02-21T07:29:21Z</time>
      </trkpt>
      <trkpt lat="45.92395" lon="6.48335">
        <ele>1441.63</ele>
        <time>2016-02-21T07:29:51Z</time>
      </trkpt>
      <trkpt lat="45.92396" lon="6.48335">
        <ele>1441.63</ele>
        <time>2016-02-21T07:30:21Z</time>
      </trkpt>
      <trkpt lat="45.92397" lon="6.48336">
        <ele>1442.11</ele>
        <time>2016-02-21T07:30:51Z</time>
      </trkpt>
      <trkpt lat="45.92398" lon="6.48337">
        <ele>1442.11</ele>
        <time>2016-02-21T07:31:21Z</time>
      </trkpt>
      <trkpt lat="45.92399" lon="6.48337">
        <ele>1442.6</ele>
        <time>2016-02-21T07:31:51Z</time>
      </trkpt>
      <trkpt lat="45.92398" lon="6.48335">
        <ele>1441.63</ele>
        <time>2016-02-21T07:32:21Z</time>
      </trkpt>
      <trkpt lat="45.92399" lon="6.48337">
        <ele>1441.63</ele>
        <time>2016-02-21T07:32:51Z</time>
      </trkpt>
      <trkpt lat="45.92398" lon="6.48338">
        <ele>1442.11</ele>
        <time>2016-02-21T07:33:21Z</time>
      </trkpt>
      <trkpt lat="45.92399" lon="6.48337">
        <ele>1442.11</ele>
        <time>2016-02-21T07:33:51Z</time>
      </trkpt>
      <trkpt lat="45.92397" lon="6.48337">
        <ele>1442.6</ele>
        <time>2016-02-21T07:34:21Z</time>
      </trkpt>
      <trkpt lat="45.92398" lon="6.48337">
        <ele>1442.6</ele>
        <time>2016-02-21T07:34:51Z</time>
      </trkpt>
      <trkpt lat="45.92397" lon="6.4834">
        <ele>1443.08</ele>
        <time>2016-02-21T07:35:21Z</time>
      </trkpt>
      <trkpt lat="45.92395" lon="6.4834">
        <ele>1443.08</ele>
        <time>2016-02-21T07:35:51Z</time>
      </trkpt>
      <trkpt lat="45.92397" lon="6.4834">
        <ele>1442.6</ele>
        <time>2016-02-21T07:36:21Z</time>
      </trkpt>
      <trkpt lat="45.92396" lon="6.48339">
        <ele>1441.15</ele>
        <time>2016-02-21T07:36:51Z</time>
      </trkpt>
      <trkpt lat="45.92384" lon="6.48344">
        <ele>1443.56</ele>
        <time>2016-02-21T07:37:21Z</time>
      </trkpt>
      <trkpt lat="45.92357" lon="6.48352">
        <ele>1444.04</ele>
        <time>2016-02-21T07:37:51Z</time>
      </trkpt>
      <trkpt lat="45.9233" lon="6.48368">
        <ele>1446.44</ele>
        <time>2016-02-21T07:38:21Z</time>
      </trkpt>
      <trkpt lat="45.92303" lon="6.48385">
        <ele>1446.44</ele>
        <time>2016-02-21T07:38:51Z</time>
      </trkpt>
      <trkpt lat="45.92275" lon="6.48397">
        <ele>1447.4</ele>
        <time>2016-02-21T07:39:21Z</time>
      </trkpt>
      <trkpt lat="45.92251" lon="6.48411">
        <ele>1448.36</ele>
        <time>2016-02-21T07:39:51Z</time>
      </trkpt>
      <trkpt lat="45.92247" lon="6.48431">
        <ele>1448.84</ele>
        <time>2016-02-21T07:40:21Z</time>
      </trkpt>
      <trkpt lat="45.92248" lon="6.48434">
        <ele>1447.88</ele>
        <time>2016-02-21T07:40:51Z</time>
      </trkpt>
      <trkpt lat="45.92247" lon="6.48433">
        <ele>1448.36</ele>
        <time>2016-02-21T07:41:21Z</time>
      </trkpt>
      <trkpt lat="45.92246" lon="6.48433">
        <ele>1448.36</ele>
        <time>2016-02-21T07:41:51Z</time>
      </trkpt>
      <trkpt lat="45.92247" lon="6.48431">
        <ele>1447.88</ele>
        <time>2016-02-21T07:42:21Z</time>
      </trkpt>
      <trkpt lat="45.92239" lon="6.48435">
        <ele>1448.84</ele>
        <time>2016-02-21T07:42:51Z</time>
      </trkpt>
      <trkpt lat="45.92215" lon="6.48459">
        <ele>1450.77</ele>
        <time>2016-02-21T07:43:21Z</time>
      </trkpt>
      <trkpt lat="45.9221" lon="6.48464">
        <ele>1448.84</ele>
        <time>2016-02-21T07:43:51Z</time>
      </trkpt>
      <trkpt lat="45.92208" lon="6.48467">
        <ele>1447.4</ele>
        <time>2016-02-21T07:44:21Z</time>
      </trkpt>
      <trkpt lat="45.92193" lon="6.48486">
        <ele>1448.84</ele>
        <time>2016-02-21T07:44:51Z</time>
      </trkpt>
      <trkpt lat="45.92178" lon="6.48505">
        <ele>1454.13</ele>
        <time>2016-02-21T07:45:21Z</time>
      </trkpt>
      <trkpt lat="45.92165" lon="6.48522">
        <ele>1461.34</ele>
        <time>2016-02-21T07:45:51Z</time>
      </trkpt>
      <trkpt lat="45.92156" lon="6.4854">
        <ele>1464.71</ele>
        <time>2016-02-21T07:46:21Z</time>
      </trkpt>
      <trkpt lat="45.92148" lon="6.48559">
        <ele>1469.99</ele>
        <time>2016-02-21T07:46:51Z</time>
      </trkpt>
      <trkpt lat="45.92136" lon="6.48548">
        <ele>1471.44</ele>
        <time>2016-02-21T07:47:21Z</time>
      </trkpt>
      <trkpt lat="45.92119" lon="6.48535">
        <ele>1469.99</ele>
        <time>2016-02-21T07:47:51Z</time>
      </trkpt>
      <trkpt lat="45.92101" lon="6.48545">
        <ele>1472.88</ele>
        <time>2016-02-21T07:48:21Z</time>
      </trkpt>
      <trkpt lat="45.92081" lon="6.48559">
        <ele>1479.13</ele>
        <time>2016-02-21T07:48:51Z</time>
      </trkpt>
      <trkpt lat="45.92061" lon="6.48564">
        <ele>1479.13</ele>
        <time>2016-02-21T07:49:21Z</time>
      </trkpt>
      <trkpt lat="45.92044" lon="6.48575">
        <ele>1481.53</ele>
        <time>2016-02-21T07:49:51Z</time>
      </trkpt>
      <trkpt lat="45.92036" lon="6.48597">
        <ele>1485.37</ele>
        <time>2016-02-21T07:50:21Z</time>
      </trkpt>
      <trkpt lat="45.92031" lon="6.48621">
        <ele>1487.78</ele>
        <time>2016-02-21T07:50:51Z</time>
      </trkpt>
      <trkpt lat="45.92017" lon="6.48643">
        <ele>1494.99</ele>
        <time>2016-02-21T07:51:21Z</time>
      </trkpt>
      <trkpt lat="45.92007" lon="6.48665">
        <ele>1495.47</ele>
        <time>2016-02-21T07:51:51Z</time>
      </trkpt>
      <trkpt lat="45.91992" lon="6.48685">
        <ele>1500.27</ele>
        <time>2016-02-21T07:52:21Z</time>
      </trkpt>
      <trkpt lat="45.91981" lon="6.48707">
        <ele>1504.12</ele>
        <time>2016-02-21T07:52:51Z</time>
      </trkpt>
      <trkpt lat="45.91965" lon="6.48717">
        <ele>1505.08</ele>
        <time>2016-02-21T07:53:21Z</time>
      </trkpt>
      <trkpt lat="45.91948" lon="6.48723">
        <ele>1510.37</ele>
        <time>2016-02-21T07:53:51Z</time>
      </trkpt>
      <trkpt lat="45.91932" lon="6.48731">
        <ele>1518.54</ele>
        <time>2016-02-21T07:54:21Z</time>
      </trkpt>
      <trkpt lat="45.91918" lon="6.48739">
        <ele>1518.54</ele>
        <time>2016-02-21T07:54:51Z</time>
      </trkpt>
      <trkpt lat="45.91902" lon="6.48747">
        <ele>1525.75</ele>
        <time>2016-02-21T07:55:21Z</time>
      </trkpt>
      <trkpt lat="45.91885" lon="6.48741">
        <ele>1530.08</ele>
        <time>2016-02-21T07:55:51Z</time>
      </trkpt>
      <trkpt lat="45.91868" lon="6.48741">
        <ele>1532.96</ele>
        <time>2016-02-21T07:56:21Z</time>
      </trkpt>
      <trkpt lat="45.91851" lon="6.48736">
        <ele>1533.92</ele>
        <time>2016-02-21T07:56:51Z</time>
      </trkpt>
      <trkpt lat="45.91837" lon="6.48742">
        <ele>1535.36</ele>
        <time>2016-02-21T07:57:21Z</time>
      </trkpt>
      <trkpt lat="45.91848" lon="6.48761">
        <ele>1542.57</ele>
        <time>2016-02-21T07:57:51Z</time>
      </trkpt>
      <trkpt lat="45.91857" lon="6.48778">
        <ele>1544.01</ele>
        <time>2016-02-21T07:58:21Z</time>
      </trkpt>
      <trkpt lat="45.91848" lon="6.48776">
        <ele>1551.22</ele>
        <time>2016-02-21T07:58:51Z</time>
      </trkpt>
      <trkpt lat="45.91829" lon="6.48775">
        <ele>1552.67</ele>
        <time>2016-02-21T07:59:21Z</time>
      </trkpt>
      <trkpt lat="45.91815" lon="6.48772">
        <ele>1556.99</ele>
        <time>2016-02-21T07:59:51Z</time>
      </trkpt>
      <trkpt lat="45.918" lon="6.48754">
        <ele>1559.88</ele>
        <time>2016-02-21T08:00:21Z</time>
      </trkpt>
      <trkpt lat="45.91781" lon="6.48753">
        <ele>1562.76</ele>
        <time>2016-02-21T08:00:51Z</time>
      </trkpt>
      <trkpt lat="45.91768" lon="6.48771">
        <ele>1562.28</ele>
        <time>2016-02-21T08:01:21Z</time>
      </trkpt>
      <trkpt lat="45.91755" lon="6.48798">
        <ele>1565.64</ele>
        <time>2016-02-21T08:01:51Z</time>
      </trkpt>
      <trkpt lat="45.91744" lon="6.48809">
        <ele>1568.05</ele>
        <time>2016-02-21T08:02:21Z</time>
      </trkpt>
      <trkpt lat="45.91726" lon="6.48817">
        <ele>1572.37</ele>
        <time>2016-02-21T08:02:51Z</time>
      </trkpt>
      <trkpt lat="45.91712" lon="6.48827">
        <ele>1573.82</ele>
        <time>2016-02-21T08:03:21Z</time>
      </trkpt>
      <trkpt lat="45.917" lon="6.4884">
        <ele>1578.14</ele>
        <time>2016-02-21T08:03:51Z</time>
      </trkpt>
      <trkpt lat="45.91682" lon="6.48842">
        <ele>1577.66</ele>
        <time>2016-02-21T08:04:21Z</time>
      </trkpt>
      <trkpt lat="45.91667" lon="6.48847">
        <ele>1580.06</ele>
        <time>2016-02-21T08:04:51Z</time>
      </trkpt>
      <trkpt lat="45.91648" lon="6.48854">
        <ele>1581.51</ele>
        <time>2016-02-21T08:05:21Z</time>
      </trkpt>
      <trkpt lat="45.91633" lon="6.48859">
        <ele>1585.35</ele>
        <time>2016-02-21T08:05:51Z</time>
      </trkpt>
      <trkpt lat="45.91616" lon="6.48862">
        <ele>1592.08</ele>
        <time>2016-02-21T08:06:21Z</time>
      </trkpt>
      <trkpt lat="45.91601" lon="6.48871">
        <ele>1595.93</ele>
        <time>2016-02-21T08:06:51Z</time>
      </trkpt>
      <trkpt lat="45.91587" lon="6.4888">
        <ele>1594.96</ele>
        <time>2016-02-21T08:07:21Z</time>
      </trkpt>
      <trkpt lat="45.9157" lon="6.48893">
        <ele>1600.73</ele>
        <time>2016-02-21T08:07:51Z</time>
      </trkpt>
      <trkpt lat="45.91555" lon="6.48906">
        <ele>1603.14</ele>
        <time>2016-02-21T08:08:21Z</time>
      </trkpt>
      <trkpt lat="45.91539" lon="6.48922">
        <ele>1605.06</ele>
        <time>2016-02-21T08:08:51Z</time>
      </trkpt>
      <trkpt lat="45.91527" lon="6.48929">
        <ele>1610.83</ele>
        <time>2016-02-21T08:09:21Z</time>
      </trkpt>
      <trkpt lat="45.91538" lon="6.48939">
        <ele>1612.27</ele>
        <time>2016-02-21T08:09:51Z</time>
      </trkpt>
      <trkpt lat="45.91541" lon="6.48939">
        <ele>1612.75</ele>
        <time>2016-02-21T08:10:21Z</time>
      </trkpt>
      <trkpt lat="45.91535" lon="6.4894">
        <ele>1613.23</ele>
        <time>2016-02-21T08:10:51Z</time>
      </trkpt>
      <trkpt lat="45.91538" lon="6.48936">
        <ele>1612.27</ele>
        <time>2016-02-21T08:11:21Z</time>
      </trkpt>
      <trkpt lat="45.91537" lon="6.48942">
        <ele>1613.23</ele>
        <time>2016-02-21T08:11:51Z</time>
      </trkpt>
      <trkpt lat="45.91539" lon="6.48942">
        <ele>1612.27</ele>
        <time>2016-02-21T08:12:21Z</time>
      </trkpt>
      <trkpt lat="45.91539" lon="6.48943">
        <ele>1615.15</ele>
        <time>2016-02-21T08:12:51Z</time>
      </trkpt>
      <trkpt lat="45.91548" lon="6.4895">
        <ele>1617.56</ele>
        <time>2016-02-21T08:13:21Z</time>
      </trkpt>
      <trkpt lat="45.91564" lon="6.48957">
        <ele>1620.44</ele>
        <time>2016-02-21T08:13:51Z</time>
      </trkpt>
      <trkpt lat="45.91579" lon="6.48956">
        <ele>1625.73</ele>
        <time>2016-02-21T08:14:21Z</time>
      </trkpt>
      <trkpt lat="45.91594" lon="6.48961">
        <ele>1625.73</ele>
        <time>2016-02-21T08:14:51Z</time>
      </trkpt>
      <trkpt lat="45.91595" lon="6.48971">
        <ele>1629.09</ele>
        <time>2016-02-21T08:15:21Z</time>
      </trkpt>
      <trkpt lat="45.91581" lon="6.48981">
        <ele>1635.34</ele>
        <time>2016-02-21T08:15:51Z</time>
      </trkpt>
      <trkpt lat="45.91567" lon="6.48984">
        <ele>1637.26</ele>
        <time>2016-02-21T08:16:21Z</time>
      </trkpt>
      <trkpt lat="45.91557" lon="6.48982">
        <ele>1640.15</ele>
        <time>2016-02-21T08:16:51Z</time>
      </trkpt>
      <trkpt lat="45.91546" lon="6.48992">
        <ele>1644.47</ele>
        <time>2016-02-21T08:17:21Z</time>
      </trkpt>
      <trkpt lat="45.91529" lon="6.48994">
        <ele>1645.91</ele>
        <time>2016-02-21T08:17:51Z</time>
      </trkpt>
      <trkpt lat="45.91513" lon="6.48995">
        <ele>1649.76</ele>
        <time>2016-02-21T08:18:21Z</time>
      </trkpt>
      <trkpt lat="45.915" lon="6.48992">
        <ele>1652.16</ele>
        <time>2016-02-21T08:18:51Z</time>
      </trkpt>
      <trkpt lat="45.91483" lon="6.48991">
        <ele>1656.49</ele>
        <time>2016-02-21T08:19:21Z</time>
      </trkpt>
      <trkpt lat="45.91478" lon="6.49008">
        <ele>1664.66</ele>
        <time>2016-02-21T08:19:51Z</time>
      </trkpt>
      <trkpt lat="45.91493" lon="6.49025">
        <ele>1663.22</ele>
        <time>2016-02-21T08:20:21Z</time>
      </trkpt>
      <trkpt lat="45.91482" lon="6.49024">
        <ele>1668.02</ele>
        <time>2016-02-21T08:20:51Z</time>
      </trkpt>
      <trkpt lat="45.91465" lon="6.49023">
        <ele>1673.31</ele>
        <time>2016-02-21T08:21:21Z</time>
      </trkpt>
      <trkpt lat="45.91469" lon="6.49039">
        <ele>1675.72</ele>
        <time>2016-02-21T08:21:51Z</time>
      </trkpt>
      <trkpt lat="45.91456" lon="6.49042">
        <ele>1682.44</ele>
        <time>2016-02-21T08:22:21Z</time>
      </trkpt>
      <trkpt lat="45.91452" lon="6.49052">
        <ele>1687.25</ele>
        <time>2016-02-21T08:22:51Z</time>
      </trkpt>
      <trkpt lat="45.91461" lon="6.49065">
        <ele>1687.73</ele>
        <time>2016-02-21T08:23:21Z</time>
      </trkpt>
      <trkpt lat="45.91461" lon="6.49069">
        <ele>1690.14</ele>
        <time>2016-02-21T08:23:51Z</time>
      </trkpt>
      <trkpt lat="45.91445" lon="6.49065">
        <ele>1693.98</ele>
        <time>2016-02-21T08:24:21Z</time>
      </trkpt>
      <trkpt lat="45.91437" lon="6.49062">
        <ele>1697.83</ele>
        <time>2016-02-21T08:24:51Z</time>
      </trkpt>
      <trkpt lat="45.91422" lon="6.49066">
        <ele>1702.15</ele>
        <time>2016-02-21T08:25:21Z</time>
      </trkpt>
      <trkpt lat="45.91408" lon="6.49069">
        <ele>1706.96</ele>
        <time>2016-02-21T08:25:51Z</time>
      </trkpt>
      <trkpt lat="45.91394" lon="6.49072">
        <ele>1711.28</ele>
        <time>2016-02-21T08:26:21Z</time>
      </trkpt>
      <trkpt lat="45.91397" lon="6.49087">
        <ele>1712.25</ele>
        <time>2016-02-21T08:26:51Z</time>
      </trkpt>
      <trkpt lat="45.91393" lon="6.49097">
        <ele>1716.09</ele>
        <time>2016-02-21T08:27:21Z</time>
      </trkpt>
      <trkpt lat="45.91388" lon="6.49107">
        <ele>1721.86</ele>
        <time>2016-02-21T08:27:51Z</time>
      </trkpt>
      <trkpt lat="45.91393" lon="6.49121">
        <ele>1725.7</ele>
        <time>2016-02-21T08:28:21Z</time>
      </trkpt>
      <trkpt lat="45.91389" lon="6.49127">
        <ele>1727.63</ele>
        <time>2016-02-21T08:28:51Z</time>
      </trkpt>
      <trkpt lat="45.91376" lon="6.49124">
        <ele>1732.43</ele>
        <time>2016-02-21T08:29:21Z</time>
      </trkpt>
      <trkpt lat="45.91361" lon="6.49121">
        <ele>1735.8</ele>
        <time>2016-02-21T08:29:51Z</time>
      </trkpt>
      <trkpt lat="45.91354" lon="6.49141">
        <ele>1744.45</ele>
        <time>2016-02-21T08:30:21Z</time>
      </trkpt>
      <trkpt lat="45.91348" lon="6.49144">
        <ele>1744.45</ele>
        <time>2016-02-21T08:30:51Z</time>
      </trkpt>
      <trkpt lat="45.91334" lon="6.4914">
        <ele>1748.29</ele>
        <time>2016-02-21T08:31:21Z</time>
      </trkpt>
      <trkpt lat="45.91319" lon="6.49138">
        <ele>1755.02</ele>
        <time>2016-02-21T08:31:51Z</time>
      </trkpt>
      <trkpt lat="45.91306" lon="6.49128">
        <ele>1755.99</ele>
        <time>2016-02-21T08:32:21Z</time>
      </trkpt>
      <trkpt lat="45.91293" lon="6.49127">
        <ele>1762.23</ele>
        <time>2016-02-21T08:32:51Z</time>
      </trkpt>
      <trkpt lat="45.91291" lon="6.49146">
        <ele>1763.2</ele>
        <time>2016-02-21T08:33:21Z</time>
      </trkpt>
      <trkpt lat="45.91296" lon="6.49167">
        <ele>1767.52</ele>
        <time>2016-02-21T08:33:51Z</time>
      </trkpt>
      <trkpt lat="45.91286" lon="6.49167">
        <ele>1773.29</ele>
        <time>2016-02-21T08:34:21Z</time>
      </trkpt>
      <trkpt lat="45.91274" lon="6.49164">
        <ele>1777.13</ele>
        <time>2016-02-21T08:34:51Z</time>
      </trkpt>
      <trkpt lat="45.91263" lon="6.49163">
        <ele>1781.46</ele>
        <time>2016-02-21T08:35:21Z</time>
      </trkpt>
      <trkpt lat="45.91251" lon="6.49154">
        <ele>1786.27</ele>
        <time>2016-02-21T08:35:51Z</time>
      </trkpt>
      <trkpt lat="45.91244" lon="6.49158">
        <ele>1792.52</ele>
        <time>2016-02-21T08:36:21Z</time>
      </trkpt>
      <trkpt lat="45.91244" lon="6.49176">
        <ele>1791.55</ele>
        <time>2016-02-21T08:36:51Z</time>
      </trkpt>
      <trkpt lat="45.91242" lon="6.49195">
        <ele>1800.21</ele>
        <time>2016-02-21T08:37:21Z</time>
      </trkpt>
      <trkpt lat="45.91231" lon="6.49189">
        <ele>1802.61</ele>
        <time>2016-02-21T08:37:51Z</time>
      </trkpt>
      <trkpt lat="45.91215" lon="6.49185">
        <ele>1804.53</ele>
        <time>2016-02-21T08:38:21Z</time>
      </trkpt>
      <trkpt lat="45.91201" lon="6.49187">
        <ele>1809.82</ele>
        <time>2016-02-21T08:38:51Z</time>
      </trkpt>
      <trkpt lat="45.91188" lon="6.49176">
        <ele>1814.15</ele>
        <time>2016-02-21T08:39:21Z</time>
      </trkpt>
      <trkpt lat="45.91174" lon="6.49165">
        <ele>1817.51</ele>
        <time>2016-02-21T08:39:51Z</time>
      </trkpt>
      <trkpt lat="45.91159" lon="6.49158">
        <ele>1821.35</ele>
        <time>2016-02-21T08:40:21Z</time>
      </trkpt>
      <trkpt lat="45.91151" lon="6.49169">
        <ele>1825.2</ele>
        <time>2016-02-21T08:40:51Z</time>
      </trkpt>
      <trkpt lat="45.91152" lon="6.49187">
        <ele>1828.56</ele>
        <time>2016-02-21T08:41:21Z</time>
      </trkpt>
      <trkpt lat="45.91148" lon="6.492">
        <ele>1832.89</ele>
        <time>2016-02-21T08:41:51Z</time>
      </trkpt>
      <trkpt lat="45.91147" lon="6.49219">
        <ele>1841.06</ele>
        <time>2016-02-21T08:42:21Z</time>
      </trkpt>
      <trkpt lat="45.91142" lon="6.49225">
        <ele>1840.1</ele>
        <time>2016-02-21T08:42:51Z</time>
      </trkpt>
      <trkpt lat="45.91137" lon="6.4923">
        <ele>1840.58</ele>
        <time>2016-02-21T08:43:21Z</time>
      </trkpt>
      <trkpt lat="45.91141" lon="6.49231">
        <ele>1840.58</ele>
        <time>2016-02-21T08:43:51Z</time>
      </trkpt>
      <trkpt lat="45.91142" lon="6.49233">
        <ele>1840.1</ele>
        <time>2016-02-21T08:44:21Z</time>
      </trkpt>
      <trkpt lat="45.91138" lon="6.49231">
        <ele>1840.58</ele>
        <time>2016-02-21T08:44:51Z</time>
      </trkpt>
      <trkpt lat="45.91144" lon="6.49239">
        <ele>1840.58</ele>
        <time>2016-02-21T08:45:21Z</time>
      </trkpt>
      <trkpt lat="45.91132" lon="6.49225">
        <ele>1840.58</ele>
        <time>2016-02-21T08:45:51Z</time>
      </trkpt>
      <trkpt lat="45.9114" lon="6.49229">
        <ele>1841.54</ele>
        <time>2016-02-21T08:46:21Z</time>
      </trkpt>
      <trkpt lat="45.91137" lon="6.49225">
        <ele>1840.58</ele>
        <time>2016-02-21T08:46:51Z</time>
      </trkpt>
      <trkpt lat="45.91136" lon="6.49226">
        <ele>1840.58</ele>
        <time>2016-02-21T08:47:21Z</time>
      </trkpt>
      <trkpt lat="45.91142" lon="6.49225">
        <ele>1841.06</ele>
        <time>2016-02-21T08:47:51Z</time>
      </trkpt>
      <trkpt lat="45.91138" lon="6.49223">
        <ele>1840.58</ele>
        <time>2016-02-21T08:48:21Z</time>
      </trkpt>
      <trkpt lat="45.9114" lon="6.4923">
        <ele>1840.1</ele>
        <time>2016-02-21T08:48:51Z</time>
      </trkpt>
      <trkpt lat="45.91145" lon="6.49231">
        <ele>1839.14</ele>
        <time>2016-02-21T08:49:21Z</time>
      </trkpt>
      <trkpt lat="45.91129" lon="6.49233">
        <ele>1839.62</ele>
        <time>2016-02-21T08:49:51Z</time>
      </trkpt>
      <trkpt lat="45.91145" lon="6.49232">
        <ele>1839.62</ele>
        <time>2016-02-21T08:50:21Z</time>
      </trkpt>
      <trkpt lat="45.91143" lon="6.49224">
        <ele>1839.62</ele>
        <time>2016-02-21T08:50:51Z</time>
      </trkpt>
      <trkpt lat="45.91145" lon="6.49232">
        <ele>1842.02</ele>
        <time>2016-02-21T08:51:21Z</time>
      </trkpt>
      <trkpt lat="45.91135" lon="6.49248">
        <ele>1848.75</ele>
        <time>2016-02-21T08:51:51Z</time>
      </trkpt>
      <trkpt lat="45.91126" lon="6.49249">
        <ele>1852.6</ele>
        <time>2016-02-21T08:52:21Z</time>
      </trkpt>
      <trkpt lat="45.91114" lon="6.49248">
        <ele>1857.4</ele>
        <time>2016-02-21T08:52:51Z</time>
      </trkpt>
      <trkpt lat="45.911" lon="6.49247">
        <ele>1860.77</ele>
        <time>2016-02-21T08:53:21Z</time>
      </trkpt>
      <trkpt lat="45.91087" lon="6.49249">
        <ele>1864.61</ele>
        <time>2016-02-21T08:53:51Z</time>
      </trkpt>
      <trkpt lat="45.91075" lon="6.49253">
        <ele>1869.9</ele>
        <time>2016-02-21T08:54:21Z</time>
      </trkpt>
      <trkpt lat="45.91061" lon="6.49264">
        <ele>1874.23</ele>
        <time>2016-02-21T08:54:51Z</time>
      </trkpt>
      <trkpt lat="45.91053" lon="6.49276">
        <ele>1879.51</ele>
        <time>2016-02-21T08:55:21Z</time>
      </trkpt>
      <trkpt lat="45.91046" lon="6.49293">
        <ele>1885.76</ele>
        <time>2016-02-21T08:55:51Z</time>
      </trkpt>
      <trkpt lat="45.91042" lon="6.49309">
        <ele>1890.09</ele>
        <time>2016-02-21T08:56:21Z</time>
      </trkpt>
      <trkpt lat="45.91041" lon="6.49327">
        <ele>1891.05</ele>
        <time>2016-02-21T08:56:51Z</time>
      </trkpt>
      <trkpt lat="45.91033" lon="6.49334">
        <ele>1898.26</ele>
        <time>2016-02-21T08:57:21Z</time>
      </trkpt>
      <trkpt lat="45.91022" lon="6.49331">
        <ele>1900.66</ele>
        <time>2016-02-21T08:57:51Z</time>
      </trkpt>
      <trkpt lat="45.91009" lon="6.49328">
        <ele>1904.99</ele>
        <time>2016-02-21T08:58:21Z</time>
      </trkpt>
      <trkpt lat="45.90996" lon="6.49324">
        <ele>1909.8</ele>
        <time>2016-02-21T08:58:51Z</time>
      </trkpt>
      <trkpt lat="45.90985" lon="6.49318">
        <ele>1915.08</ele>
        <time>2016-02-21T08:59:21Z</time>
      </trkpt>
      <trkpt lat="45.90974" lon="6.49325">
        <ele>1918.45</ele>
        <time>2016-02-21T08:59:51Z</time>
      </trkpt>
      <trkpt lat="45.90964" lon="6.49338">
        <ele>1922.29</ele>
        <time>2016-02-21T09:00:21Z</time>
      </trkpt>
      <trkpt lat="45.90959" lon="6.49356">
        <ele>1928.54</ele>
        <time>2016-02-21T09:00:51Z</time>
      </trkpt>
      <trkpt lat="45.90956" lon="6.49372">
        <ele>1930.46</ele>
        <time>2016-02-21T09:01:21Z</time>
      </trkpt>
      <trkpt lat="45.90955" lon="6.49389">
        <ele>1934.79</ele>
        <time>2016-02-21T09:01:51Z</time>
      </trkpt>
      <trkpt lat="45.90954" lon="6.49398">
        <ele>1936.71</ele>
        <time>2016-02-21T09:02:21Z</time>
      </trkpt>
      <trkpt lat="45.90943" lon="6.49391">
        <ele>1942</ele>
        <time>2016-02-21T09:02:51Z</time>
      </trkpt>
      <trkpt lat="45.90933" lon="6.49383">
        <ele>1945.85</ele>
        <time>2016-02-21T09:03:21Z</time>
      </trkpt>
      <trkpt lat="45.90927" lon="6.49401">
        <ele>1952.57</ele>
        <time>2016-02-21T09:03:51Z</time>
      </trkpt>
      <trkpt lat="45.90923" lon="6.49404">
        <ele>1955.46</ele>
        <time>2016-02-21T09:04:21Z</time>
      </trkpt>
      <trkpt lat="45.90914" lon="6.49395">
        <ele>1957.86</ele>
        <time>2016-02-21T09:04:51Z</time>
      </trkpt>
      <trkpt lat="45.90911" lon="6.49414">
        <ele>1963.15</ele>
        <time>2016-02-21T09:05:21Z</time>
      </trkpt>
      <trkpt lat="45.9091" lon="6.49434">
        <ele>1968.44</ele>
        <time>2016-02-21T09:05:51Z</time>
      </trkpt>
      <trkpt lat="45.90906" lon="6.49436">
        <ele>1970.84</ele>
        <time>2016-02-21T09:06:21Z</time>
      </trkpt>
      <trkpt lat="45.90891" lon="6.49432">
        <ele>1974.2</ele>
        <time>2016-02-21T09:06:51Z</time>
      </trkpt>
      <trkpt lat="45.90881" lon="6.49424">
        <ele>1977.09</ele>
        <time>2016-02-21T09:07:20Z</time>
      </trkpt>
      <trkpt lat="45.90877" lon="6.49422">
        <ele>1983.34</ele>
        <time>2016-02-21T09:07:51Z</time>
      </trkpt>
      <trkpt lat="45.90876" lon="6.49438">
        <ele>1985.74</ele>
        <time>2016-02-21T09:08:21Z</time>
      </trkpt>
      <trkpt lat="45.90877" lon="6.49455">
        <ele>1987.18</ele>
        <time>2016-02-21T09:08:51Z</time>
      </trkpt>
      <trkpt lat="45.90879" lon="6.49468">
        <ele>1992.95</ele>
        <time>2016-02-21T09:09:20Z</time>
      </trkpt>
      <trkpt lat="45.90872" lon="6.49482">
        <ele>1998.24</ele>
        <time>2016-02-21T09:09:51Z</time>
      </trkpt>
      <trkpt lat="45.90865" lon="6.49497">
        <ele>1999.68</ele>
        <time>2016-02-21T09:10:21Z</time>
      </trkpt>
      <trkpt lat="45.90853" lon="6.49515">
        <ele>2004.49</ele>
        <time>2016-02-21T09:10:51Z</time>
      </trkpt>
      <trkpt lat="45.90843" lon="6.49526">
        <ele>2006.89</ele>
        <time>2016-02-21T09:11:21Z</time>
      </trkpt>
      <trkpt lat="45.90837" lon="6.49538">
        <ele>2009.77</ele>
        <time>2016-02-21T09:11:51Z</time>
      </trkpt>
      <trkpt lat="45.90828" lon="6.49551">
        <ele>2015.54</ele>
        <time>2016-02-21T09:12:21Z</time>
      </trkpt>
      <trkpt lat="45.9082" lon="6.49562">
        <ele>2020.35</ele>
        <time>2016-02-21T09:12:51Z</time>
      </trkpt>
      <trkpt lat="45.9082" lon="6.49576">
        <ele>2021.79</ele>
        <time>2016-02-21T09:13:21Z</time>
      </trkpt>
      <trkpt lat="45.90819" lon="6.49591">
        <ele>2029.48</ele>
        <time>2016-02-21T09:13:51Z</time>
      </trkpt>
      <trkpt lat="45.9082" lon="6.49602">
        <ele>2031.4</ele>
        <time>2016-02-21T09:14:21Z</time>
      </trkpt>
      <trkpt lat="45.90804" lon="6.49599">
        <ele>2035.73</ele>
        <time>2016-02-21T09:14:51Z</time>
      </trkpt>
      <trkpt lat="45.90805" lon="6.49598">
        <ele>2040.54</ele>
        <time>2016-02-21T09:15:21Z</time>
      </trkpt>
      <trkpt lat="45.90796" lon="6.49594">
        <ele>2042.94</ele>
        <time>2016-02-21T09:15:51Z</time>
      </trkpt>
      <trkpt lat="45.90793" lon="6.49609">
        <ele>2045.82</ele>
        <time>2016-02-21T09:16:21Z</time>
      </trkpt>
      <trkpt lat="45.90782" lon="6.49607">
        <ele>2053.03</ele>
        <time>2016-02-21T09:16:51Z</time>
      </trkpt>
      <trkpt lat="45.9077" lon="6.49606">
        <ele>2056.88</ele>
        <time>2016-02-21T09:17:21Z</time>
      </trkpt>
      <trkpt lat="45.9076" lon="6.4961">
        <ele>2062.17</ele>
        <time>2016-02-21T09:17:51Z</time>
      </trkpt>
      <trkpt lat="45.9075" lon="6.49612">
        <ele>2064.09</ele>
        <time>2016-02-21T09:18:21Z</time>
      </trkpt>
      <trkpt lat="45.90738" lon="6.4961">
        <ele>2068.89</ele>
        <time>2016-02-21T09:18:51Z</time>
      </trkpt>
      <trkpt lat="45.90727" lon="6.49606">
        <ele>2071.78</ele>
        <time>2016-02-21T09:19:21Z</time>
      </trkpt>
      <trkpt lat="45.90711" lon="6.49597">
        <ele>2077.07</ele>
        <time>2016-02-21T09:19:51Z</time>
      </trkpt>
      <trkpt lat="45.90694" lon="6.49597">
        <ele>2079.47</ele>
        <time>2016-02-21T09:20:21Z</time>
      </trkpt>
      <trkpt lat="45.90689" lon="6.49613">
        <ele>2082.83</ele>
        <time>2016-02-21T09:20:51Z</time>
      </trkpt>
      <trkpt lat="45.90683" lon="6.49632">
        <ele>2086.2</ele>
        <time>2016-02-21T09:21:21Z</time>
      </trkpt>
      <trkpt lat="45.90669" lon="6.49651">
        <ele>2088.12</ele>
        <time>2016-02-21T09:21:51Z</time>
      </trkpt>
      <trkpt lat="45.90661" lon="6.49666">
        <ele>2091.49</ele>
        <time>2016-02-21T09:22:21Z</time>
      </trkpt>
      <trkpt lat="45.90652" lon="6.49681">
        <ele>2096.77</ele>
        <time>2016-02-21T09:22:51Z</time>
      </trkpt>
      <trkpt lat="45.90646" lon="6.49695">
        <ele>2101.1</ele>
        <time>2016-02-21T09:23:21Z</time>
      </trkpt>
      <trkpt lat="45.90639" lon="6.49715">
        <ele>2105.42</ele>
        <time>2016-02-21T09:23:51Z</time>
      </trkpt>
      <trkpt lat="45.90633" lon="6.49736">
        <ele>2109.75</ele>
        <time>2016-02-21T09:24:21Z</time>
      </trkpt>
      <trkpt lat="45.9063" lon="6.49757">
        <ele>2111.67</ele>
        <time>2016-02-21T09:24:51Z</time>
      </trkpt>
      <trkpt lat="45.90627" lon="6.4977">
        <ele>2116.96</ele>
        <time>2016-02-21T09:25:21Z</time>
      </trkpt>
      <trkpt lat="45.90616" lon="6.49774">
        <ele>2120.32</ele>
        <time>2016-02-21T09:25:51Z</time>
      </trkpt>
      <trkpt lat="45.90602" lon="6.49772">
        <ele>2126.09</ele>
        <time>2016-02-21T09:26:21Z</time>
      </trkpt>
      <trkpt lat="45.90589" lon="6.49773">
        <ele>2128.5</ele>
        <time>2016-02-21T09:26:51Z</time>
      </trkpt>
      <trkpt lat="45.90578" lon="6.49768">
        <ele>2133.78</ele>
        <time>2016-02-21T09:27:21Z</time>
      </trkpt>
      <trkpt lat="45.90566" lon="6.49762">
        <ele>2139.55</ele>
        <time>2016-02-21T09:27:51Z</time>
      </trkpt>
      <trkpt lat="45.90553" lon="6.49752">
        <ele>2140.03</ele>
        <time>2016-02-21T09:28:21Z</time>
      </trkpt>
      <trkpt lat="45.90536" lon="6.49745">
        <ele>2144.84</ele>
        <time>2016-02-21T09:28:51Z</time>
      </trkpt>
      <trkpt lat="45.90539" lon="6.49771">
        <ele>2152.05</ele>
        <time>2016-02-21T09:29:21Z</time>
      </trkpt>
      <trkpt lat="45.90537" lon="6.49793">
        <ele>2154.45</ele>
        <time>2016-02-21T09:29:51Z</time>
      </trkpt>
      <trkpt lat="45.90534" lon="6.49812">
        <ele>2157.82</ele>
        <time>2016-02-21T09:30:21Z</time>
      </trkpt>
      <trkpt lat="45.90534" lon="6.49832">
        <ele>2162.62</ele>
        <time>2016-02-21T09:30:51Z</time>
      </trkpt>
      <trkpt lat="45.90536" lon="6.49863">
        <ele>2162.62</ele>
        <time>2016-02-21T09:31:21Z</time>
      </trkpt>
      <trkpt lat="45.90539" lon="6.49891">
        <ele>2163.58</ele>
        <time>2016-02-21T09:31:51Z</time>
      </trkpt>
      <trkpt lat="45.90543" lon="6.49916">
        <ele>2167.43</ele>
        <time>2016-02-21T09:32:21Z</time>
      </trkpt>
      <trkpt lat="45.90547" lon="6.4994">
        <ele>2171.27</ele>
        <time>2016-02-21T09:32:51Z</time>
      </trkpt>
      <trkpt lat="45.90546" lon="6.49967">
        <ele>2172.72</ele>
        <time>2016-02-21T09:33:21Z</time>
      </trkpt>
      <trkpt lat="45.9054" lon="6.49994">
        <ele>2175.12</ele>
        <time>2016-02-21T09:33:51Z</time>
      </trkpt>
      <trkpt lat="45.90535" lon="6.50024">
        <ele>2175.6</ele>
        <time>2016-02-21T09:34:21Z</time>
      </trkpt>
      <trkpt lat="45.9053" lon="6.50053">
        <ele>2178</ele>
        <time>2016-02-21T09:34:51Z</time>
      </trkpt>
      <trkpt lat="45.90526" lon="6.50082">
        <ele>2178.48</ele>
        <time>2016-02-21T09:35:21Z</time>
      </trkpt>
      <trkpt lat="45.90523" lon="6.50101">
        <ele>2178</ele>
        <time>2016-02-21T09:35:51Z</time>
      </trkpt>
      <trkpt lat="45.90518" lon="6.50129">
        <ele>2181.37</ele>
        <time>2016-02-21T09:36:21Z</time>
      </trkpt>
      <trkpt lat="45.90516" lon="6.50156">
        <ele>2183.77</ele>
        <time>2016-02-21T09:36:51Z</time>
      </trkpt>
      <trkpt lat="45.90519" lon="6.50183">
        <ele>2187.14</ele>
        <time>2016-02-21T09:37:21Z</time>
      </trkpt>
      <trkpt lat="45.90525" lon="6.50204">
        <ele>2189.06</ele>
        <time>2016-02-21T09:37:51Z</time>
      </trkpt>
      <trkpt lat="45.9053" lon="6.50231">
        <ele>2193.87</ele>
        <time>2016-02-21T09:38:21Z</time>
      </trkpt>
      <trkpt lat="45.90534" lon="6.50258">
        <ele>2195.79</ele>
        <time>2016-02-21T09:38:51Z</time>
      </trkpt>
      <trkpt lat="45.90539" lon="6.50274">
        <ele>2199.15</ele>
        <time>2016-02-21T09:39:21Z</time>
      </trkpt>
      <trkpt lat="45.9054" lon="6.50288">
        <ele>2202.52</ele>
        <time>2016-02-21T09:39:51Z</time>
      </trkpt>
      <trkpt lat="45.90537" lon="6.503">
        <ele>2209.25</ele>
        <time>2016-02-21T09:40:21Z</time>
      </trkpt>
      <trkpt lat="45.90533" lon="6.50314">
        <ele>2211.65</ele>
        <time>2016-02-21T09:40:51Z</time>
      </trkpt>
      <trkpt lat="45.90545" lon="6.50313">
        <ele>2213.09</ele>
        <time>2016-02-21T09:41:21Z</time>
      </trkpt>
      <trkpt lat="45.90557" lon="6.50316">
        <ele>2217.9</ele>
        <time>2016-02-21T09:41:51Z</time>
      </trkpt>
      <trkpt lat="45.90571" lon="6.50316">
        <ele>2221.26</ele>
        <time>2016-02-21T09:42:21Z</time>
      </trkpt>
      <trkpt lat="45.90584" lon="6.50306">
        <ele>2223.19</ele>
        <time>2016-02-21T09:42:51Z</time>
      </trkpt>
      <trkpt lat="45.9059" lon="6.50305">
        <ele>2229.92</ele>
        <time>2016-02-21T09:43:21Z</time>
      </trkpt>
      <trkpt lat="45.90595" lon="6.50319">
        <ele>2233.28</ele>
        <time>2016-02-21T09:43:51Z</time>
      </trkpt>
      <trkpt lat="45.90607" lon="6.5033">
        <ele>2239.53</ele>
        <time>2016-02-21T09:44:21Z</time>
      </trkpt>
      <trkpt lat="45.90611" lon="6.50345">
        <ele>2243.37</ele>
        <time>2016-02-21T09:44:51Z</time>
      </trkpt>
      <trkpt lat="45.90615" lon="6.50357">
        <ele>2245.3</ele>
        <time>2016-02-21T09:45:21Z</time>
      </trkpt>
      <trkpt lat="45.90612" lon="6.50369">
        <ele>2249.62</ele>
        <time>2016-02-21T09:45:51Z</time>
      </trkpt>
      <trkpt lat="45.9061" lon="6.50383">
        <ele>2252.03</ele>
        <time>2016-02-21T09:46:21Z</time>
      </trkpt>
      <trkpt lat="45.90622" lon="6.50391">
        <ele>2258.27</ele>
        <time>2016-02-21T09:46:51Z</time>
      </trkpt>
      <trkpt lat="45.90609" lon="6.50399">
        <ele>2259.72</ele>
        <time>2016-02-21T09:47:21Z</time>
      </trkpt>
      <trkpt lat="45.90612" lon="6.50412">
        <ele>2262.6</ele>
        <time>2016-02-21T09:47:51Z</time>
      </trkpt>
      <trkpt lat="45.90623" lon="6.50417">
        <ele>2265</ele>
        <time>2016-02-21T09:48:21Z</time>
      </trkpt>
      <trkpt lat="45.90639" lon="6.50416">
        <ele>2268.37</ele>
        <time>2016-02-21T09:48:51Z</time>
      </trkpt>
      <trkpt lat="45.90652" lon="6.50409">
        <ele>2273.66</ele>
        <time>2016-02-21T09:49:21Z</time>
      </trkpt>
      <trkpt lat="45.9065" lon="6.50392">
        <ele>2275.1</ele>
        <time>2016-02-21T09:49:51Z</time>
      </trkpt>
      <trkpt lat="45.90651" lon="6.5039">
        <ele>2275.58</ele>
        <time>2016-02-21T09:50:21Z</time>
      </trkpt>
      <trkpt lat="45.9065" lon="6.50393">
        <ele>2275.1</ele>
        <time>2016-02-21T09:50:51Z</time>
      </trkpt>
      <trkpt lat="45.90652" lon="6.50389">
        <ele>2276.06</ele>
        <time>2016-02-21T09:51:21Z</time>
      </trkpt>
      <trkpt lat="45.90659" lon="6.50387">
        <ele>2278.94</ele>
        <time>2016-02-21T09:51:51Z</time>
      </trkpt>
      <trkpt lat="45.90668" lon="6.5038">
        <ele>2283.27</ele>
        <time>2016-02-21T09:52:21Z</time>
      </trkpt>
      <trkpt lat="45.90678" lon="6.50372">
        <ele>2284.23</ele>
        <time>2016-02-21T09:52:51Z</time>
      </trkpt>
      <trkpt lat="45.90688" lon="6.50366">
        <ele>2287.59</ele>
        <time>2016-02-21T09:53:21Z</time>
      </trkpt>
      <trkpt lat="45.90698" lon="6.50374">
        <ele>2292.4</ele>
        <time>2016-02-21T09:53:51Z</time>
      </trkpt>
      <trkpt lat="45.9071" lon="6.50382">
        <ele>2298.65</ele>
        <time>2016-02-21T09:54:21Z</time>
      </trkpt>
      <trkpt lat="45.90717" lon="6.50394">
        <ele>2301.05</ele>
        <time>2016-02-21T09:54:51Z</time>
      </trkpt>
      <trkpt lat="45.90723" lon="6.50406">
        <ele>2305.86</ele>
        <time>2016-02-21T09:55:21Z</time>
      </trkpt>
      <trkpt lat="45.90731" lon="6.50419">
        <ele>2307.3</ele>
        <time>2016-02-21T09:55:51Z</time>
      </trkpt>
      <trkpt lat="45.90739" lon="6.50428">
        <ele>2313.55</ele>
        <time>2016-02-21T09:56:21Z</time>
      </trkpt>
      <trkpt lat="45.90748" lon="6.50435">
        <ele>2316.43</ele>
        <time>2016-02-21T09:56:51Z</time>
      </trkpt>
      <trkpt lat="45.90737" lon="6.50443">
        <ele>2318.84</ele>
        <time>2016-02-21T09:57:21Z</time>
      </trkpt>
      <trkpt lat="45.90729" lon="6.50452">
        <ele>2321.72</ele>
        <time>2016-02-21T09:57:51Z</time>
      </trkpt>
      <trkpt lat="45.90728" lon="6.50466">
        <ele>2329.41</ele>
        <time>2016-02-21T09:58:21Z</time>
      </trkpt>
      <trkpt lat="45.90723" lon="6.50482">
        <ele>2329.41</ele>
        <time>2016-02-21T09:58:51Z</time>
      </trkpt>
      <trkpt lat="45.90718" lon="6.50491">
        <ele>2336.14</ele>
        <time>2016-02-21T09:59:21Z</time>
      </trkpt>
      <trkpt lat="45.90723" lon="6.50506">
        <ele>2339.02</ele>
        <time>2016-02-21T09:59:51Z</time>
      </trkpt>
      <trkpt lat="45.90723" lon="6.50515">
        <ele>2342.87</ele>
        <time>2016-02-21T10:00:21Z</time>
      </trkpt>
      <trkpt lat="45.90719" lon="6.50519">
        <ele>2343.83</ele>
        <time>2016-02-21T10:00:51Z</time>
      </trkpt>
      <trkpt lat="45.90722" lon="6.50516">
        <ele>2343.35</ele>
        <time>2016-02-21T10:01:21Z</time>
      </trkpt>
      <trkpt lat="45.9073" lon="6.50532">
        <ele>2348.64</ele>
        <time>2016-02-21T10:01:51Z</time>
      </trkpt>
      <trkpt lat="45.90738" lon="6.50551">
        <ele>2351.04</ele>
        <time>2016-02-21T10:02:21Z</time>
      </trkpt>
      <trkpt lat="45.90746" lon="6.50568">
        <ele>2355.85</ele>
        <time>2016-02-21T10:02:51Z</time>
      </trkpt>
      <trkpt lat="45.90751" lon="6.50585">
        <ele>2357.29</ele>
        <time>2016-02-21T10:03:21Z</time>
      </trkpt>
      <trkpt lat="45.90751" lon="6.50605">
        <ele>2359.21</ele>
        <time>2016-02-21T10:03:51Z</time>
      </trkpt>
      <trkpt lat="45.90754" lon="6.50624">
        <ele>2365.46</ele>
        <time>2016-02-21T10:04:21Z</time>
      </trkpt>
      <trkpt lat="45.90758" lon="6.50639">
        <ele>2369.79</ele>
        <time>2016-02-21T10:04:51Z</time>
      </trkpt>
      <trkpt lat="45.9076" lon="6.50658">
        <ele>2371.71</ele>
        <time>2016-02-21T10:05:21Z</time>
      </trkpt>
      <trkpt lat="45.90766" lon="6.5067">
        <ele>2375.07</ele>
        <time>2016-02-21T10:05:51Z</time>
      </trkpt>
      <trkpt lat="45.90767" lon="6.50688">
        <ele>2380.84</ele>
        <time>2016-02-21T10:06:21Z</time>
      </trkpt>
      <trkpt lat="45.9077" lon="6.50699">
        <ele>2381.8</ele>
        <time>2016-02-21T10:06:51Z</time>
      </trkpt>
      <trkpt lat="45.9077" lon="6.50713">
        <ele>2388.05</ele>
        <time>2016-02-21T10:07:21Z</time>
      </trkpt>
      <trkpt lat="45.90773" lon="6.50724">
        <ele>2392.86</ele>
        <time>2016-02-21T10:07:51Z</time>
      </trkpt>
      <trkpt lat="45.90777" lon="6.50737">
        <ele>2396.7</ele>
        <time>2016-02-21T10:08:21Z</time>
      </trkpt>
      <trkpt lat="45.90781" lon="6.50749">
        <ele>2398.15</ele>
        <time>2016-02-21T10:08:51Z</time>
      </trkpt>
      <trkpt lat="45.90783" lon="6.50762">
        <ele>2403.91</ele>
        <time>2016-02-21T10:09:21Z</time>
      </trkpt>
      <trkpt lat="45.9079" lon="6.50774">
        <ele>2408.72</ele>
        <time>2016-02-21T10:09:51Z</time>
      </trkpt>
      <trkpt lat="45.90794" lon="6.50787">
        <ele>2414.49</ele>
        <time>2016-02-21T10:10:21Z</time>
      </trkpt>
      <trkpt lat="45.90798" lon="6.508">
        <ele>2416.89</ele>
        <time>2016-02-21T10:10:51Z</time>
      </trkpt>
      <trkpt lat="45.90798" lon="6.50812">
        <ele>2419.3</ele>
        <time>2016-02-21T10:11:21Z</time>
      </trkpt>
      <trkpt lat="45.90804" lon="6.50821">
        <ele>2421.7</ele>
        <time>2016-02-21T10:11:51Z</time>
      </trkpt>
      <trkpt lat="45.9081" lon="6.50834">
        <ele>2426.02</ele>
        <time>2016-02-21T10:12:21Z</time>
      </trkpt>
      <trkpt lat="45.90814" lon="6.5085">
        <ele>2428.91</ele>
        <time>2016-02-21T10:12:51Z</time>
      </trkpt>
      <trkpt lat="45.90819" lon="6.50863">
        <ele>2431.79</ele>
        <time>2016-02-21T10:13:21Z</time>
      </trkpt>
      <trkpt lat="45.90824" lon="6.50871">
        <ele>2434.2</ele>
        <time>2016-02-21T10:13:51Z</time>
      </trkpt>
      <trkpt lat="45.90823" lon="6.50876">
        <ele>2437.08</ele>
        <time>2016-02-21T10:14:21Z</time>
      </trkpt>
      <trkpt lat="45.90824" lon="6.5088">
        <ele>2440.44</ele>
        <time>2016-02-21T10:14:51Z</time>
      </trkpt>
      <trkpt lat="45.9082" lon="6.50886">
        <ele>2441.41</ele>
        <time>2016-02-21T10:15:21Z</time>
      </trkpt>
      <trkpt lat="45.90826" lon="6.50882">
        <ele>2441.89</ele>
        <time>2016-02-21T10:15:51Z</time>
      </trkpt>
      <trkpt lat="45.90837" lon="6.50876">
        <ele>2445.25</ele>
        <time>2016-02-21T10:16:21Z</time>
      </trkpt>
      <trkpt lat="45.90843" lon="6.50867">
        <ele>2447.65</ele>
        <time>2016-02-21T10:16:51Z</time>
      </trkpt>
      <trkpt lat="45.90853" lon="6.50856">
        <ele>2453.42</ele>
        <time>2016-02-21T10:17:21Z</time>
      </trkpt>
      <trkpt lat="45.90861" lon="6.50847">
        <ele>2458.71</ele>
        <time>2016-02-21T10:17:51Z</time>
      </trkpt>
      <trkpt lat="45.90867" lon="6.50834">
        <ele>2460.63</ele>
        <time>2016-02-21T10:18:21Z</time>
      </trkpt>
      <trkpt lat="45.90871" lon="6.50835">
        <ele>2466.4</ele>
        <time>2016-02-21T10:18:51Z</time>
      </trkpt>
      <trkpt lat="45.90874" lon="6.50848">
        <ele>2468.8</ele>
        <time>2016-02-21T10:19:21Z</time>
      </trkpt>
      <trkpt lat="45.90876" lon="6.50846">
        <ele>2471.21</ele>
        <time>2016-02-21T10:19:51Z</time>
      </trkpt>
      <trkpt lat="45.9088" lon="6.50838">
        <ele>2473.13</ele>
        <time>2016-02-21T10:20:21Z</time>
      </trkpt>
      <trkpt lat="45.90883" lon="6.50834">
        <ele>2473.13</ele>
        <time>2016-02-21T10:20:51Z</time>
      </trkpt>
      <trkpt lat="45.90889" lon="6.50819">
        <ele>2478.9</ele>
        <time>2016-02-21T10:21:21Z</time>
      </trkpt>
      <trkpt lat="45.90891" lon="6.50813">
        <ele>2477.94</ele>
        <time>2016-02-21T10:21:51Z</time>
      </trkpt>
      <trkpt lat="45.90897" lon="6.50816">
        <ele>2481.3</ele>
        <time>2016-02-21T10:22:21Z</time>
      </trkpt>
      <trkpt lat="45.90902" lon="6.50801">
        <ele>2483.7</ele>
        <time>2016-02-21T10:22:51Z</time>
      </trkpt>
      <trkpt lat="45.90903" lon="6.50813">
        <ele>2488.99</ele>
        <time>2016-02-21T10:23:21Z</time>
      </trkpt>
      <trkpt lat="45.90908" lon="6.50822">
        <ele>2495.24</ele>
        <time>2016-02-21T10:23:51Z</time>
      </trkpt>
      <trkpt lat="45.90904" lon="6.50837">
        <ele>2494.76</ele>
        <time>2016-02-21T10:24:21Z</time>
      </trkpt>
      <trkpt lat="45.90907" lon="6.5084">
        <ele>2494.76</ele>
        <time>2016-02-21T10:24:51Z</time>
      </trkpt>
      <trkpt lat="45.90907" lon="6.50838">
        <ele>2494.76</ele>
        <time>2016-02-21T10:25:21Z</time>
      </trkpt>
      <trkpt lat="45.90908" lon="6.50844">
        <ele>2495.72</ele>
        <time>2016-02-21T10:25:51Z</time>
      </trkpt>
      <trkpt lat="45.90909" lon="6.50843">
        <ele>2495.72</ele>
        <time>2016-02-21T10:26:21Z</time>
      </trkpt>
      <trkpt lat="45.90907" lon="6.50841">
        <ele>2495.72</ele>
        <time>2016-02-21T10:26:51Z</time>
      </trkpt>
      <trkpt lat="45.90906" lon="6.5084">
        <ele>2496.2</ele>
        <time>2016-02-21T10:27:21Z</time>
      </trkpt>
      <trkpt lat="45.90908" lon="6.50839">
        <ele>2496.2</ele>
        <time>2016-02-21T10:27:51Z</time>
      </trkpt>
      <trkpt lat="45.90908" lon="6.50848">
        <ele>2495.72</ele>
        <time>2016-02-21T10:28:21Z</time>
      </trkpt>
      <trkpt lat="45.90911" lon="6.5085">
        <ele>2498.12</ele>
        <time>2016-02-21T10:28:51Z</time>
      </trkpt>
      <trkpt lat="45.90908" lon="6.50858">
        <ele>2497.64</ele>
        <time>2016-02-21T10:29:21Z</time>
      </trkpt>
      <trkpt lat="45.90909" lon="6.50868">
        <ele>2504.37</ele>
        <time>2016-02-21T10:29:51Z</time>
      </trkpt>
      <trkpt lat="45.90911" lon="6.50881">
        <ele>2511.58</ele>
        <time>2016-02-21T10:30:21Z</time>
      </trkpt>
      <trkpt lat="45.90915" lon="6.50888">
        <ele>2511.58</ele>
        <time>2016-02-21T10:30:51Z</time>
      </trkpt>
      <trkpt lat="45.90916" lon="6.50897">
        <ele>2518.79</ele>
        <time>2016-02-21T10:31:21Z</time>
      </trkpt>
      <trkpt lat="45.90917" lon="6.50908">
        <ele>2519.75</ele>
        <time>2016-02-21T10:31:51Z</time>
      </trkpt>
      <trkpt lat="45.90914" lon="6.50915">
        <ele>2522.16</ele>
        <time>2016-02-21T10:32:21Z</time>
      </trkpt>
      <trkpt lat="45.90916" lon="6.50924">
        <ele>2522.16</ele>
        <time>2016-02-21T10:32:51Z</time>
      </trkpt>
      <trkpt lat="45.90917" lon="6.50934">
        <ele>2525.52</ele>
        <time>2016-02-21T10:33:21Z</time>
      </trkpt>
      <trkpt lat="45.90919" lon="6.50946">
        <ele>2532.25</ele>
        <time>2016-02-21T10:33:51Z</time>
      </trkpt>
      <trkpt lat="45.90924" lon="6.50957">
        <ele>2534.17</ele>
        <time>2016-02-21T10:34:21Z</time>
      </trkpt>
      <trkpt lat="45.90924" lon="6.50955">
        <ele>2534.65</ele>
        <time>2016-02-21T10:34:51Z</time>
      </trkpt>
      <trkpt lat="45.90925" lon="6.50956">
        <ele>2534.65</ele>
        <time>2016-02-21T10:35:21Z</time>
      </trkpt>
      <trkpt lat="45.90925" lon="6.50958">
        <ele>2534.65</ele>
        <time>2016-02-21T10:35:51Z</time>
      </trkpt>
      <trkpt lat="45.90926" lon="6.50958">
        <ele>2534.65</ele>
        <time>2016-02-21T10:36:21Z</time>
      </trkpt>
      <trkpt lat="45.90925" lon="6.50957">
        <ele>2534.17</ele>
        <time>2016-02-21T10:36:51Z</time>
      </trkpt>
      <trkpt lat="45.90925" lon="6.50959">
        <ele>2534.65</ele>
        <time>2016-02-21T10:37:21Z</time>
      </trkpt>
      <trkpt lat="45.90925" lon="6.50959">
        <ele>2534.17</ele>
        <time>2016-02-21T10:37:51Z</time>
      </trkpt>
      <trkpt lat="45.90926" lon="6.50955">
        <ele>2533.69</ele>
        <time>2016-02-21T10:38:21Z</time>
      </trkpt>
      <trkpt lat="45.90925" lon="6.50956">
        <ele>2534.17</ele>
        <time>2016-02-21T10:38:51Z</time>
      </trkpt>
      <trkpt lat="45.90927" lon="6.50956">
        <ele>2533.69</ele>
        <time>2016-02-21T10:39:21Z</time>
      </trkpt>
      <trkpt lat="45.90926" lon="6.50957">
        <ele>2534.65</ele>
        <time>2016-02-21T10:39:51Z</time>
      </trkpt>
      <trkpt lat="45.90926" lon="6.50957">
        <ele>2534.65</ele>
        <time>2016-02-21T10:40:21Z</time>
      </trkpt>
      <trkpt lat="45.90926" lon="6.50958">
        <ele>2534.65</ele>
        <time>2016-02-21T10:40:51Z</time>
      </trkpt>
      <trkpt lat="45.90925" lon="6.50958">
        <ele>2534.65</ele>
        <time>2016-02-21T10:41:21Z</time>
      </trkpt>
      <trkpt lat="45.90926" lon="6.50956">
        <ele>2534.65</ele>
        <time>2016-02-21T10:41:51Z</time>
      </trkpt>
      <trkpt lat="45.90926" lon="6.50955">
        <ele>2535.61</ele>
        <time>2016-02-21T10:42:21Z</time>
      </trkpt>
      <trkpt lat="45.90926" lon="6.50954">
        <ele>2534.17</ele>
        <time>2016-02-21T10:42:51Z</time>
      </trkpt>
      <trkpt lat="45.90922" lon="6.5095">
        <ele>2534.17</ele>
        <time>2016-02-21T10:43:21Z</time>
      </trkpt>
      <trkpt lat="45.90919" lon="6.50939">
        <ele>2531.29</ele>
        <time>2016-02-21T10:43:51Z</time>
      </trkpt>
      <trkpt lat="45.90917" lon="6.50932">
        <ele>2527.92</ele>
        <time>2016-02-21T10:44:21Z</time>
      </trkpt>
      <trkpt lat="45.90915" lon="6.5092">
        <ele>2523.12</ele>
        <time>2016-02-21T10:44:51Z</time>
      </trkpt>
      <trkpt lat="45.90916" lon="6.50911">
        <ele>2521.19</ele>
        <time>2016-02-21T10:45:21Z</time>
      </trkpt>
      <trkpt lat="45.90916" lon="6.50907">
        <ele>2518.79</ele>
        <time>2016-02-21T10:45:51Z</time>
      </trkpt>
      <trkpt lat="45.90916" lon="6.509">
        <ele>2516.87</ele>
        <time>2016-02-21T10:46:21Z</time>
      </trkpt>
      <trkpt lat="45.90912" lon="6.50883">
        <ele>2510.62</ele>
        <time>2016-02-21T10:46:51Z</time>
      </trkpt>
      <trkpt lat="45.90909" lon="6.50866">
        <ele>2504.37</ele>
        <time>2016-02-21T10:47:21Z</time>
      </trkpt>
      <trkpt lat="45.90907" lon="6.50852">
        <ele>2499.57</ele>
        <time>2016-02-21T10:47:51Z</time>
      </trkpt>
      <trkpt lat="45.90905" lon="6.50843">
        <ele>2497.16</ele>
        <time>2016-02-21T10:48:21Z</time>
      </trkpt>
      <trkpt lat="45.90905" lon="6.50838">
        <ele>2498.12</ele>
        <time>2016-02-21T10:48:51Z</time>
      </trkpt>
      <trkpt lat="45.90904" lon="6.50843">
        <ele>2495.72</ele>
        <time>2016-02-21T10:49:21Z</time>
      </trkpt>
      <trkpt lat="45.90905" lon="6.50841">
        <ele>2495.72</ele>
        <time>2016-02-21T10:49:51Z</time>
      </trkpt>
      <trkpt lat="45.90904" lon="6.5084">
        <ele>2495.72</ele>
        <time>2016-02-21T10:50:21Z</time>
      </trkpt>
      <trkpt lat="45.90905" lon="6.50839">
        <ele>2495.72</ele>
        <time>2016-02-21T10:50:51Z</time>
      </trkpt>
      <trkpt lat="45.90903" lon="6.50841">
        <ele>2496.68</ele>
        <time>2016-02-21T10:51:21Z</time>
      </trkpt>
      <trkpt lat="45.90903" lon="6.50842">
        <ele>2495.72</ele>
        <time>2016-02-21T10:51:51Z</time>
      </trkpt>
      <trkpt lat="45.90904" lon="6.50842">
        <ele>2495.72</ele>
        <time>2016-02-21T10:52:21Z</time>
      </trkpt>
      <trkpt lat="45.90904" lon="6.50842">
        <ele>2496.2</ele>
        <time>2016-02-21T10:52:51Z</time>
      </trkpt>
      <trkpt lat="45.90905" lon="6.50841">
        <ele>2495.72</ele>
        <time>2016-02-21T10:53:21Z</time>
      </trkpt>
      <trkpt lat="45.90904" lon="6.50842">
        <ele>2496.2</ele>
        <time>2016-02-21T10:53:51Z</time>
      </trkpt>
      <trkpt lat="45.90905" lon="6.50843">
        <ele>2495.72</ele>
        <time>2016-02-21T10:54:21Z</time>
      </trkpt>
      <trkpt lat="45.90904" lon="6.50843">
        <ele>2496.68</ele>
        <time>2016-02-21T10:54:51Z</time>
      </trkpt>
      <trkpt lat="45.90905" lon="6.50843">
        <ele>2495.72</ele>
        <time>2016-02-21T10:55:21Z</time>
      </trkpt>
      <trkpt lat="45.90905" lon="6.50843">
        <ele>2495.72</ele>
        <time>2016-02-21T10:55:51Z</time>
      </trkpt>
      <trkpt lat="45.90905" lon="6.50842">
        <ele>2496.68</ele>
        <time>2016-02-21T10:56:21Z</time>
      </trkpt>
      <trkpt lat="45.90904" lon="6.50843">
        <ele>2496.2</ele>
        <time>2016-02-21T10:56:51Z</time>
      </trkpt>
      <trkpt lat="45.90905" lon="6.50843">
        <ele>2496.2</ele>
        <time>2016-02-21T10:57:21Z</time>
      </trkpt>
      <trkpt lat="45.90906" lon="6.50842">
        <ele>2496.2</ele>
        <time>2016-02-21T10:57:51Z</time>
      </trkpt>
      <trkpt lat="45.90906" lon="6.50841">
        <ele>2496.2</ele>
        <time>2016-02-21T10:58:21Z</time>
      </trkpt>
      <trkpt lat="45.90905" lon="6.50842">
        <ele>2496.2</ele>
        <time>2016-02-21T10:58:51Z</time>
      </trkpt>
      <trkpt lat="45.90905" lon="6.50841">
        <ele>2495.72</ele>
        <time>2016-02-21T10:59:21Z</time>
      </trkpt>
      <trkpt lat="45.90905" lon="6.50841">
        <ele>2496.68</ele>
        <time>2016-02-21T10:59:51Z</time>
      </trkpt>
      <trkpt lat="45.90904" lon="6.50842">
        <ele>2497.16</ele>
        <time>2016-02-21T11:00:21Z</time>
      </trkpt>
      <trkpt lat="45.90904" lon="6.50842">
        <ele>2496.68</ele>
        <time>2016-02-21T11:00:51Z</time>
      </trkpt>
      <trkpt lat="45.90904" lon="6.50841">
        <ele>2496.68</ele>
        <time>2016-02-21T11:01:21Z</time>
      </trkpt>
      <trkpt lat="45.90905" lon="6.50841">
        <ele>2496.68</ele>
        <time>2016-02-21T11:01:51Z</time>
      </trkpt>
      <trkpt lat="45.90904" lon="6.50841">
        <ele>2496.68</ele>
        <time>2016-02-21T11:02:21Z</time>
      </trkpt>
      <trkpt lat="45.90904" lon="6.50841">
        <ele>2497.16</ele>
        <time>2016-02-21T11:02:51Z</time>
      </trkpt>
      <trkpt lat="45.90902" lon="6.50842">
        <ele>2496.68</ele>
        <time>2016-02-21T11:03:21Z</time>
      </trkpt>
      <trkpt lat="45.90904" lon="6.50842">
        <ele>2496.68</ele>
        <time>2016-02-21T11:03:51Z</time>
      </trkpt>
      <trkpt lat="45.90904" lon="6.50841">
        <ele>2496.68</ele>
        <time>2016-02-21T11:04:21Z</time>
      </trkpt>
      <trkpt lat="45.90904" lon="6.50841">
        <ele>2497.16</ele>
        <time>2016-02-21T11:04:51Z</time>
      </trkpt>
      <trkpt lat="45.90904" lon="6.50841">
        <ele>2496.68</ele>
        <time>2016-02-21T11:05:21Z</time>
      </trkpt>
      <trkpt lat="45.90905" lon="6.50842">
        <ele>2497.64</ele>
        <time>2016-02-21T11:05:51Z</time>
      </trkpt>
      <trkpt lat="45.90904" lon="6.50843">
        <ele>2497.16</ele>
        <time>2016-02-21T11:06:21Z</time>
      </trkpt>
      <trkpt lat="45.90905" lon="6.50843">
        <ele>2497.64</ele>
        <time>2016-02-21T11:06:51Z</time>
      </trkpt>
      <trkpt lat="45.90904" lon="6.50844">
        <ele>2497.64</ele>
        <time>2016-02-21T11:07:21Z</time>
      </trkpt>
      <trkpt lat="45.90904" lon="6.50843">
        <ele>2496.68</ele>
        <time>2016-02-21T11:07:51Z</time>
      </trkpt>
      <trkpt lat="45.90906" lon="6.50844">
        <ele>2497.64</ele>
        <time>2016-02-21T11:08:21Z</time>
      </trkpt>
      <trkpt lat="45.90905" lon="6.50843">
        <ele>2497.16</ele>
        <time>2016-02-21T11:08:51Z</time>
      </trkpt>
      <trkpt lat="45.90905" lon="6.50844">
        <ele>2497.16</ele>
        <time>2016-02-21T11:09:21Z</time>
      </trkpt>
      <trkpt lat="45.90905" lon="6.50844">
        <ele>2497.64</ele>
        <time>2016-02-21T11:09:51Z</time>
      </trkpt>
      <trkpt lat="45.90905" lon="6.50842">
        <ele>2497.64</ele>
        <time>2016-02-21T11:10:21Z</time>
      </trkpt>
      <trkpt lat="45.90904" lon="6.50843">
        <ele>2497.16</ele>
        <time>2016-02-21T11:10:51Z</time>
      </trkpt>
      <trkpt lat="45.90904" lon="6.50842">
        <ele>2497.64</ele>
        <time>2016-02-21T11:11:21Z</time>
      </trkpt>
      <trkpt lat="45.90905" lon="6.50841">
        <ele>2497.16</ele>
        <time>2016-02-21T11:11:51Z</time>
      </trkpt>
      <trkpt lat="45.90904" lon="6.50841">
        <ele>2497.16</ele>
        <time>2016-02-21T11:12:21Z</time>
      </trkpt>
      <trkpt lat="45.90903" lon="6.50841">
        <ele>2497.64</ele>
        <time>2016-02-21T11:12:51Z</time>
      </trkpt>
      <trkpt lat="45.90905" lon="6.50841">
        <ele>2497.16</ele>
        <time>2016-02-21T11:13:21Z</time>
      </trkpt>
      <trkpt lat="45.90904" lon="6.50841">
        <ele>2496.68</ele>
        <time>2016-02-21T11:13:51Z</time>
      </trkpt>
      <trkpt lat="45.90904" lon="6.5084">
        <ele>2496.68</ele>
        <time>2016-02-21T11:14:21Z</time>
      </trkpt>
      <trkpt lat="45.90904" lon="6.50839">
        <ele>2497.16</ele>
        <time>2016-02-21T11:14:51Z</time>
      </trkpt>
      <trkpt lat="45.90904" lon="6.5084">
        <ele>2497.16</ele>
        <time>2016-02-21T11:15:21Z</time>
      </trkpt>
      <trkpt lat="45.90904" lon="6.50842">
        <ele>2497.16</ele>
        <time>2016-02-21T11:15:51Z</time>
      </trkpt>
      <trkpt lat="45.90905" lon="6.50843">
        <ele>2497.16</ele>
        <time>2016-02-21T11:16:21Z</time>
      </trkpt>
      <trkpt lat="45.90905" lon="6.50844">
        <ele>2497.16</ele>
        <time>2016-02-21T11:16:51Z</time>
      </trkpt>
      <trkpt lat="45.90906" lon="6.50842">
        <ele>2497.16</ele>
        <time>2016-02-21T11:17:21Z</time>
      </trkpt>
      <trkpt lat="45.90908" lon="6.50839">
        <ele>2500.53</ele>
        <time>2016-02-21T11:17:51Z</time>
      </trkpt>
      <trkpt lat="45.90908" lon="6.50843">
        <ele>2499.08</ele>
        <time>2016-02-21T11:18:21Z</time>
      </trkpt>
      <trkpt lat="45.90909" lon="6.50843">
        <ele>2498.12</ele>
        <time>2016-02-21T11:18:51Z</time>
      </trkpt>
      <trkpt lat="45.90908" lon="6.50843">
        <ele>2498.6</ele>
        <time>2016-02-21T11:19:21Z</time>
      </trkpt>
      <trkpt lat="45.90909" lon="6.50844">
        <ele>2498.6</ele>
        <time>2016-02-21T11:19:51Z</time>
      </trkpt>
      <trkpt lat="45.90907" lon="6.50842">
        <ele>2498.6</ele>
        <time>2016-02-21T11:20:21Z</time>
      </trkpt>
      <trkpt lat="45.90907" lon="6.50843">
        <ele>2498.6</ele>
        <time>2016-02-21T11:20:51Z</time>
      </trkpt>
      <trkpt lat="45.90906" lon="6.50843">
        <ele>2498.12</ele>
        <time>2016-02-21T11:21:21Z</time>
      </trkpt>
      <trkpt lat="45.90905" lon="6.50843">
        <ele>2497.64</ele>
        <time>2016-02-21T11:21:51Z</time>
      </trkpt>
      <trkpt lat="45.90905" lon="6.50843">
        <ele>2498.12</ele>
        <time>2016-02-21T11:22:21Z</time>
      </trkpt>
      <trkpt lat="45.90905" lon="6.50846">
        <ele>2498.12</ele>
        <time>2016-02-21T11:22:51Z</time>
      </trkpt>
      <trkpt lat="45.90907" lon="6.50843">
        <ele>2498.12</ele>
        <time>2016-02-21T11:23:21Z</time>
      </trkpt>
      <trkpt lat="45.90906" lon="6.50843">
        <ele>2497.64</ele>
        <time>2016-02-21T11:23:51Z</time>
      </trkpt>
      <trkpt lat="45.90906" lon="6.50844">
        <ele>2498.6</ele>
        <time>2016-02-21T11:24:21Z</time>
      </trkpt>
      <trkpt lat="45.90906" lon="6.50845">
        <ele>2498.12</ele>
        <time>2016-02-21T11:24:51Z</time>
      </trkpt>
      <trkpt lat="45.90902" lon="6.50845">
        <ele>2498.12</ele>
        <time>2016-02-21T11:25:21Z</time>
      </trkpt>
      <trkpt lat="45.90904" lon="6.50842">
        <ele>2498.6</ele>
        <time>2016-02-21T11:25:51Z</time>
      </trkpt>
      <trkpt lat="45.90904" lon="6.50845">
        <ele>2498.6</ele>
        <time>2016-02-21T11:26:21Z</time>
      </trkpt>
      <trkpt lat="45.90906" lon="6.50844">
        <ele>2498.12</ele>
        <time>2016-02-21T11:26:51Z</time>
      </trkpt>
      <trkpt lat="45.90906" lon="6.50844">
        <ele>2498.12</ele>
        <time>2016-02-21T11:27:21Z</time>
      </trkpt>
      <trkpt lat="45.90906" lon="6.50843">
        <ele>2499.57</ele>
        <time>2016-02-21T11:27:51Z</time>
      </trkpt>
      <trkpt lat="45.90905" lon="6.50844">
        <ele>2499.08</ele>
        <time>2016-02-21T11:28:21Z</time>
      </trkpt>
      <trkpt lat="45.90904" lon="6.50843">
        <ele>2499.08</ele>
        <time>2016-02-21T11:28:51Z</time>
      </trkpt>
      <trkpt lat="45.90904" lon="6.50843">
        <ele>2499.08</ele>
        <time>2016-02-21T11:29:21Z</time>
      </trkpt>
      <trkpt lat="45.90904" lon="6.50843">
        <ele>2499.57</ele>
        <time>2016-02-21T11:29:51Z</time>
      </trkpt>
      <trkpt lat="45.90915" lon="6.50839">
        <ele>2492.84</ele>
        <time>2016-02-21T11:30:21Z</time>
      </trkpt>
      <trkpt lat="45.90931" lon="6.50835">
        <ele>2484.66</ele>
        <time>2016-02-21T11:30:51Z</time>
      </trkpt>
      <trkpt lat="45.90944" lon="6.50821">
        <ele>2468.32</ele>
        <time>2016-02-21T11:31:21Z</time>
      </trkpt>
      <trkpt lat="45.90973" lon="6.50789">
        <ele>2444.77</ele>
        <time>2016-02-21T11:31:51Z</time>
      </trkpt>
      <trkpt lat="45.90974" lon="6.50792">
        <ele>2442.37</ele>
        <time>2016-02-21T11:32:21Z</time>
      </trkpt>
      <trkpt lat="45.90967" lon="6.50783">
        <ele>2439</ele>
        <time>2016-02-21T11:32:51Z</time>
      </trkpt>
      <trkpt lat="45.90979" lon="6.50716">
        <ele>2415.45</ele>
        <time>2016-02-21T11:33:21Z</time>
      </trkpt>
      <trkpt lat="45.90995" lon="6.50702">
        <ele>2401.99</ele>
        <time>2016-02-21T11:33:51Z</time>
      </trkpt>
      <trkpt lat="45.91002" lon="6.50677">
        <ele>2394.78</ele>
        <time>2016-02-21T11:34:21Z</time>
      </trkpt>
      <trkpt lat="45.91012" lon="6.50684">
        <ele>2392.38</ele>
        <time>2016-02-21T11:34:51Z</time>
      </trkpt>
      <trkpt lat="45.91026" lon="6.50693">
        <ele>2388.53</ele>
        <time>2016-02-21T11:35:21Z</time>
      </trkpt>
      <trkpt lat="45.91072" lon="6.50694">
        <ele>2362.1</ele>
        <time>2016-02-21T11:35:51Z</time>
      </trkpt>
      <trkpt lat="45.911" lon="6.50702">
        <ele>2350.56</ele>
        <time>2016-02-21T11:36:21Z</time>
      </trkpt>
      <trkpt lat="45.91099" lon="6.50704">
        <ele>2350.08</ele>
        <time>2016-02-21T11:36:51Z</time>
      </trkpt>
      <trkpt lat="45.91126" lon="6.50684">
        <ele>2327.97</ele>
        <time>2016-02-21T11:37:21Z</time>
      </trkpt>
      <trkpt lat="45.91159" lon="6.50671">
        <ele>2306.34</ele>
        <time>2016-02-21T11:37:51Z</time>
      </trkpt>
      <trkpt lat="45.91198" lon="6.50687">
        <ele>2287.11</ele>
        <time>2016-02-21T11:38:21Z</time>
      </trkpt>
      <trkpt lat="45.91216" lon="6.50693">
        <ele>2277.02</ele>
        <time>2016-02-21T11:38:51Z</time>
      </trkpt>
      <trkpt lat="45.91258" lon="6.5068">
        <ele>2259.72</ele>
        <time>2016-02-21T11:39:21Z</time>
      </trkpt>
      <trkpt lat="45.91272" lon="6.50686">
        <ele>2256.35</ele>
        <time>2016-02-21T11:39:51Z</time>
      </trkpt>
      <trkpt lat="45.913" lon="6.50818">
        <ele>2238.09</ele>
        <time>2016-02-21T11:40:21Z</time>
      </trkpt>
      <trkpt lat="45.91368" lon="6.50902">
        <ele>2226.55</ele>
        <time>2016-02-21T11:40:51Z</time>
      </trkpt>
      <trkpt lat="45.91386" lon="6.50877">
        <ele>2223.19</ele>
        <time>2016-02-21T11:41:21Z</time>
      </trkpt>
      <trkpt lat="45.91393" lon="6.50861">
        <ele>2223.67</ele>
        <time>2016-02-21T11:41:51Z</time>
      </trkpt>
      <trkpt lat="45.91392" lon="6.50864">
        <ele>2222.71</ele>
        <time>2016-02-21T11:42:21Z</time>
      </trkpt>
      <trkpt lat="45.91391" lon="6.50863">
        <ele>2224.63</ele>
        <time>2016-02-21T11:42:51Z</time>
      </trkpt>
      <trkpt lat="45.91385" lon="6.50866">
        <ele>2224.15</ele>
        <time>2016-02-21T11:43:21Z</time>
      </trkpt>
      <trkpt lat="45.91388" lon="6.50866">
        <ele>2224.63</ele>
        <time>2016-02-21T11:43:51Z</time>
      </trkpt>
      <trkpt lat="45.91397" lon="6.50857">
        <ele>2224.15</ele>
        <time>2016-02-21T11:44:21Z</time>
      </trkpt>
      <trkpt lat="45.91397" lon="6.50862">
        <ele>2224.15</ele>
        <time>2016-02-21T11:44:51Z</time>
      </trkpt>
      <trkpt lat="45.91393" lon="6.50858">
        <ele>2223.67</ele>
        <time>2016-02-21T11:45:21Z</time>
      </trkpt>
      <trkpt lat="45.91396" lon="6.50856">
        <ele>2224.63</ele>
        <time>2016-02-21T11:45:51Z</time>
      </trkpt>
      <trkpt lat="45.91392" lon="6.50863">
        <ele>2223.67</ele>
        <time>2016-02-21T11:46:21Z</time>
      </trkpt>
      <trkpt lat="45.9139" lon="6.50861">
        <ele>2223.67</ele>
        <time>2016-02-21T11:46:51Z</time>
      </trkpt>
      <trkpt lat="45.91392" lon="6.50857">
        <ele>2223.19</ele>
        <time>2016-02-21T11:47:21Z</time>
      </trkpt>
      <trkpt lat="45.9139" lon="6.50863">
        <ele>2222.71</ele>
        <time>2016-02-21T11:47:51Z</time>
      </trkpt>
      <trkpt lat="45.91393" lon="6.50858">
        <ele>2223.19</ele>
        <time>2016-02-21T11:48:21Z</time>
      </trkpt>
      <trkpt lat="45.91388" lon="6.5086">
        <ele>2223.19</ele>
        <time>2016-02-21T11:48:51Z</time>
      </trkpt>
      <trkpt lat="45.91391" lon="6.50862">
        <ele>2223.67</ele>
        <time>2016-02-21T11:49:21Z</time>
      </trkpt>
      <trkpt lat="45.91391" lon="6.5086">
        <ele>2223.67</ele>
        <time>2016-02-21T11:49:51Z</time>
      </trkpt>
      <trkpt lat="45.91391" lon="6.50863">
        <ele>2223.19</ele>
        <time>2016-02-21T11:50:21Z</time>
      </trkpt>
      <trkpt lat="45.91395" lon="6.50863">
        <ele>2223.19</ele>
        <time>2016-02-21T11:50:51Z</time>
      </trkpt>
      <trkpt lat="45.91393" lon="6.5086">
        <ele>2223.19</ele>
        <time>2016-02-21T11:51:21Z</time>
      </trkpt>
      <trkpt lat="45.91393" lon="6.50862">
        <ele>2223.67</ele>
        <time>2016-02-21T11:51:51Z</time>
      </trkpt>
      <trkpt lat="45.91397" lon="6.50855">
        <ele>2223.67</ele>
        <time>2016-02-21T11:52:21Z</time>
      </trkpt>
      <trkpt lat="45.91399" lon="6.50858">
        <ele>2223.67</ele>
        <time>2016-02-21T11:52:51Z</time>
      </trkpt>
      <trkpt lat="45.91398" lon="6.50857">
        <ele>2224.15</ele>
        <time>2016-02-21T11:53:21Z</time>
      </trkpt>
      <trkpt lat="45.91399" lon="6.50856">
        <ele>2224.15</ele>
        <time>2016-02-21T11:53:51Z</time>
      </trkpt>
      <trkpt lat="45.91395" lon="6.50854">
        <ele>2224.15</ele>
        <time>2016-02-21T11:54:21Z</time>
      </trkpt>
      <trkpt lat="45.91397" lon="6.5087">
        <ele>2229.43</ele>
        <time>2016-02-21T11:54:51Z</time>
      </trkpt>
      <trkpt lat="45.91394" lon="6.50892">
        <ele>2231.36</ele>
        <time>2016-02-21T11:55:21Z</time>
      </trkpt>
      <trkpt lat="45.91398" lon="6.50907">
        <ele>2235.2</ele>
        <time>2016-02-21T11:55:51Z</time>
      </trkpt>
      <trkpt lat="45.91403" lon="6.50922">
        <ele>2239.53</ele>
        <time>2016-02-21T11:56:21Z</time>
      </trkpt>
      <trkpt lat="45.91405" lon="6.50939">
        <ele>2239.05</ele>
        <time>2016-02-21T11:56:51Z</time>
      </trkpt>
      <trkpt lat="45.91409" lon="6.50956">
        <ele>2243.85</ele>
        <time>2016-02-21T11:57:21Z</time>
      </trkpt>
      <trkpt lat="45.91402" lon="6.50975">
        <ele>2247.7</ele>
        <time>2016-02-21T11:57:51Z</time>
      </trkpt>
      <trkpt lat="45.91403" lon="6.50992">
        <ele>2249.62</ele>
        <time>2016-02-21T11:58:21Z</time>
      </trkpt>
      <trkpt lat="45.91415" lon="6.50988">
        <ele>2256.35</ele>
        <time>2016-02-21T11:58:51Z</time>
      </trkpt>
      <trkpt lat="45.91418" lon="6.5099">
        <ele>2258.75</ele>
        <time>2016-02-21T11:59:21Z</time>
      </trkpt>
      <trkpt lat="45.91418" lon="6.51001">
        <ele>2262.12</ele>
        <time>2016-02-21T11:59:51Z</time>
      </trkpt>
      <trkpt lat="45.91414" lon="6.51021">
        <ele>2266.45</ele>
        <time>2016-02-21T12:00:21Z</time>
      </trkpt>
      <trkpt lat="45.91413" lon="6.51036">
        <ele>2266.45</ele>
        <time>2016-02-21T12:00:51Z</time>
      </trkpt>
      <trkpt lat="45.91409" lon="6.51052">
        <ele>2273.17</ele>
        <time>2016-02-21T12:01:21Z</time>
      </trkpt>
      <trkpt lat="45.91408" lon="6.51066">
        <ele>2278.46</ele>
        <time>2016-02-21T12:01:51Z</time>
      </trkpt>
      <trkpt lat="45.91406" lon="6.51079">
        <ele>2279.9</ele>
        <time>2016-02-21T12:02:21Z</time>
      </trkpt>
      <trkpt lat="45.91412" lon="6.51082">
        <ele>2281.83</ele>
        <time>2016-02-21T12:02:51Z</time>
      </trkpt>
      <trkpt lat="45.91417" lon="6.5108">
        <ele>2281.35</ele>
        <time>2016-02-21T12:03:21Z</time>
      </trkpt>
      <trkpt lat="45.91427" lon="6.51079">
        <ele>2289.52</ele>
        <time>2016-02-21T12:03:51Z</time>
      </trkpt>
      <trkpt lat="45.91432" lon="6.5108">
        <ele>2289.52</ele>
        <time>2016-02-21T12:04:21Z</time>
      </trkpt>
      <trkpt lat="45.91435" lon="6.51082">
        <ele>2290.96</ele>
        <time>2016-02-21T12:04:51Z</time>
      </trkpt>
      <trkpt lat="45.91423" lon="6.51099">
        <ele>2294.32</ele>
        <time>2016-02-21T12:05:21Z</time>
      </trkpt>
      <trkpt lat="45.91421" lon="6.51118">
        <ele>2298.17</ele>
        <time>2016-02-21T12:05:51Z</time>
      </trkpt>
      <trkpt lat="45.91415" lon="6.51132">
        <ele>2302.98</ele>
        <time>2016-02-21T12:06:21Z</time>
      </trkpt>
      <trkpt lat="45.91412" lon="6.51145">
        <ele>2302.98</ele>
        <time>2016-02-21T12:06:51Z</time>
      </trkpt>
      <trkpt lat="45.91428" lon="6.5114">
        <ele>2306.34</ele>
        <time>2016-02-21T12:07:21Z</time>
      </trkpt>
      <trkpt lat="45.91438" lon="6.51137">
        <ele>2309.7</ele>
        <time>2016-02-21T12:07:51Z</time>
      </trkpt>
      <trkpt lat="45.91451" lon="6.51139">
        <ele>2317.88</ele>
        <time>2016-02-21T12:08:21Z</time>
      </trkpt>
      <trkpt lat="45.91464" lon="6.51132">
        <ele>2321.24</ele>
        <time>2016-02-21T12:08:51Z</time>
      </trkpt>
      <trkpt lat="45.91457" lon="6.51142">
        <ele>2322.2</ele>
        <time>2016-02-21T12:09:21Z</time>
      </trkpt>
      <trkpt lat="45.91452" lon="6.51156">
        <ele>2326.53</ele>
        <time>2016-02-21T12:09:51Z</time>
      </trkpt>
      <trkpt lat="45.91456" lon="6.51161">
        <ele>2330.85</ele>
        <time>2016-02-21T12:10:21Z</time>
      </trkpt>
      <trkpt lat="45.91469" lon="6.51158">
        <ele>2331.81</ele>
        <time>2016-02-21T12:10:51Z</time>
      </trkpt>
      <trkpt lat="45.9148" lon="6.51153">
        <ele>2335.18</ele>
        <time>2016-02-21T12:11:21Z</time>
      </trkpt>
      <trkpt lat="45.91474" lon="6.51165">
        <ele>2337.58</ele>
        <time>2016-02-21T12:11:51Z</time>
      </trkpt>
      <trkpt lat="45.91472" lon="6.51177">
        <ele>2341.91</ele>
        <time>2016-02-21T12:12:21Z</time>
      </trkpt>
      <trkpt lat="45.91478" lon="6.51174">
        <ele>2344.79</ele>
        <time>2016-02-21T12:12:51Z</time>
      </trkpt>
      <trkpt lat="45.91475" lon="6.51188">
        <ele>2347.2</ele>
        <time>2016-02-21T12:13:21Z</time>
      </trkpt>
      <trkpt lat="45.91487" lon="6.51184">
        <ele>2351.04</ele>
        <time>2016-02-21T12:13:51Z</time>
      </trkpt>
      <trkpt lat="45.91491" lon="6.51182">
        <ele>2353.44</ele>
        <time>2016-02-21T12:14:21Z</time>
      </trkpt>
      <trkpt lat="45.91483" lon="6.51197">
        <ele>2356.81</ele>
        <time>2016-02-21T12:14:51Z</time>
      </trkpt>
      <trkpt lat="45.91478" lon="6.5121">
        <ele>2361.14</ele>
        <time>2016-02-21T12:15:21Z</time>
      </trkpt>
      <trkpt lat="45.91488" lon="6.51212">
        <ele>2365.94</ele>
        <time>2016-02-21T12:15:51Z</time>
      </trkpt>
      <trkpt lat="45.91501" lon="6.51207">
        <ele>2367.86</ele>
        <time>2016-02-21T12:16:21Z</time>
      </trkpt>
      <trkpt lat="45.91499" lon="6.51217">
        <ele>2370.27</ele>
        <time>2016-02-21T12:16:51Z</time>
      </trkpt>
      <trkpt lat="45.9149" lon="6.51232">
        <ele>2374.11</ele>
        <time>2016-02-21T12:17:21Z</time>
      </trkpt>
      <trkpt lat="45.915" lon="6.51234">
        <ele>2377</ele>
        <time>2016-02-21T12:17:51Z</time>
      </trkpt>
      <trkpt lat="45.91512" lon="6.51229">
        <ele>2383.25</ele>
        <time>2016-02-21T12:18:21Z</time>
      </trkpt>
      <trkpt lat="45.91517" lon="6.51233">
        <ele>2384.21</ele>
        <time>2016-02-21T12:18:51Z</time>
      </trkpt>
      <trkpt lat="45.91509" lon="6.51246">
        <ele>2387.57</ele>
        <time>2016-02-21T12:19:21Z</time>
      </trkpt>
      <trkpt lat="45.91508" lon="6.5125">
        <ele>2388.05</ele>
        <time>2016-02-21T12:19:51Z</time>
      </trkpt>
      <trkpt lat="45.9152" lon="6.5125">
        <ele>2392.38</ele>
        <time>2016-02-21T12:20:21Z</time>
      </trkpt>
      <trkpt lat="45.91525" lon="6.51246">
        <ele>2395.74</ele>
        <time>2016-02-21T12:20:51Z</time>
      </trkpt>
      <trkpt lat="45.91518" lon="6.51261">
        <ele>2398.15</ele>
        <time>2016-02-21T12:21:21Z</time>
      </trkpt>
      <trkpt lat="45.91529" lon="6.51257">
        <ele>2402.95</ele>
        <time>2016-02-21T12:21:51Z</time>
      </trkpt>
      <trkpt lat="45.91533" lon="6.51253">
        <ele>2402.47</ele>
        <time>2016-02-21T12:22:21Z</time>
      </trkpt>
      <trkpt lat="45.91525" lon="6.5127">
        <ele>2405.84</ele>
        <time>2016-02-21T12:22:51Z</time>
      </trkpt>
      <trkpt lat="45.91534" lon="6.5127">
        <ele>2409.2</ele>
        <time>2016-02-21T12:23:21Z</time>
      </trkpt>
      <trkpt lat="45.91543" lon="6.51261">
        <ele>2414.49</ele>
        <time>2016-02-21T12:23:51Z</time>
      </trkpt>
      <trkpt lat="45.91543" lon="6.51261">
        <ele>2414.97</ele>
        <time>2016-02-21T12:24:21Z</time>
      </trkpt>
      <trkpt lat="45.91539" lon="6.51275">
        <ele>2416.41</ele>
        <time>2016-02-21T12:24:51Z</time>
      </trkpt>
      <trkpt lat="45.91552" lon="6.5127">
        <ele>2420.26</ele>
        <time>2016-02-21T12:25:21Z</time>
      </trkpt>
      <trkpt lat="45.91561" lon="6.51259">
        <ele>2423.14</ele>
        <time>2016-02-21T12:25:51Z</time>
      </trkpt>
      <trkpt lat="45.91559" lon="6.51268">
        <ele>2424.58</ele>
        <time>2016-02-21T12:26:21Z</time>
      </trkpt>
      <trkpt lat="45.91569" lon="6.51266">
        <ele>2429.87</ele>
        <time>2016-02-21T12:26:51Z</time>
      </trkpt>
      <trkpt lat="45.91573" lon="6.51259">
        <ele>2428.91</ele>
        <time>2016-02-21T12:27:21Z</time>
      </trkpt>
      <trkpt lat="45.91571" lon="6.5126">
        <ele>2429.39</ele>
        <time>2016-02-21T12:27:51Z</time>
      </trkpt>
      <trkpt lat="45.91572" lon="6.51258">
        <ele>2430.83</ele>
        <time>2016-02-21T12:28:21Z</time>
      </trkpt>
      <trkpt lat="45.91576" lon="6.51271">
        <ele>2430.83</ele>
        <time>2016-02-21T12:28:51Z</time>
      </trkpt>
      <trkpt lat="45.91582" lon="6.51253">
        <ele>2437.08</ele>
        <time>2016-02-21T12:29:21Z</time>
      </trkpt>
      <trkpt lat="45.91591" lon="6.51263">
        <ele>2443.33</ele>
        <time>2016-02-21T12:29:51Z</time>
      </trkpt>
      <trkpt lat="45.91591" lon="6.51262">
        <ele>2442.37</ele>
        <time>2016-02-21T12:30:21Z</time>
      </trkpt>
      <trkpt lat="45.91583" lon="6.51261">
        <ele>2443.33</ele>
        <time>2016-02-21T12:30:51Z</time>
      </trkpt>
      <trkpt lat="45.91583" lon="6.51261">
        <ele>2443.81</ele>
        <time>2016-02-21T12:31:21Z</time>
      </trkpt>
      <trkpt lat="45.91562" lon="6.51267">
        <ele>2443.33</ele>
        <time>2016-02-21T12:31:51Z</time>
      </trkpt>
      <trkpt lat="45.91548" lon="6.51296">
        <ele>2442.37</ele>
        <time>2016-02-21T12:32:21Z</time>
      </trkpt>
      <trkpt lat="45.91576" lon="6.51321">
        <ele>2439</ele>
        <time>2016-02-21T12:32:51Z</time>
      </trkpt>
      <trkpt lat="45.91585" lon="6.51297">
        <ele>2440.44</ele>
        <time>2016-02-21T12:33:21Z</time>
      </trkpt>
      <trkpt lat="45.91579" lon="6.513">
        <ele>2441.89</ele>
        <time>2016-02-21T12:33:51Z</time>
      </trkpt>
      <trkpt lat="45.9158" lon="6.51262">
        <ele>2444.29</ele>
        <time>2016-02-21T12:34:21Z</time>
      </trkpt>
      <trkpt lat="45.91566" lon="6.51251">
        <ele>2444.77</ele>
        <time>2016-02-21T12:34:51Z</time>
      </trkpt>
      <trkpt lat="45.91575" lon="6.51257">
        <ele>2445.25</ele>
        <time>2016-02-21T12:35:21Z</time>
      </trkpt>
      <trkpt lat="45.9158" lon="6.51255">
        <ele>2445.73</ele>
        <time>2016-02-21T12:35:51Z</time>
      </trkpt>
      <trkpt lat="45.91579" lon="6.51264">
        <ele>2445.73</ele>
        <time>2016-02-21T12:36:21Z</time>
      </trkpt>
      <trkpt lat="45.91583" lon="6.51265">
        <ele>2446.21</ele>
        <time>2016-02-21T12:36:51Z</time>
      </trkpt>
      <trkpt lat="45.91585" lon="6.51262">
        <ele>2446.21</ele>
        <time>2016-02-21T12:37:21Z</time>
      </trkpt>
      <trkpt lat="45.91578" lon="6.51262">
        <ele>2447.17</ele>
        <time>2016-02-21T12:37:51Z</time>
      </trkpt>
      <trkpt lat="45.91581" lon="6.5126">
        <ele>2446.21</ele>
        <time>2016-02-21T12:38:21Z</time>
      </trkpt>
      <trkpt lat="45.91584" lon="6.5126">
        <ele>2445.73</ele>
        <time>2016-02-21T12:38:51Z</time>
      </trkpt>
      <trkpt lat="45.91585" lon="6.51262">
        <ele>2446.69</ele>
        <time>2016-02-21T12:39:21Z</time>
      </trkpt>
      <trkpt lat="45.91585" lon="6.51261">
        <ele>2445.25</ele>
        <time>2016-02-21T12:39:51Z</time>
      </trkpt>
      <trkpt lat="45.91583" lon="6.51264">
        <ele>2447.17</ele>
        <time>2016-02-21T12:40:21Z</time>
      </trkpt>
      <trkpt lat="45.91583" lon="6.51265">
        <ele>2448.62</ele>
        <time>2016-02-21T12:40:51Z</time>
      </trkpt>
      <trkpt lat="45.91587" lon="6.51268">
        <ele>2446.69</ele>
        <time>2016-02-21T12:41:21Z</time>
      </trkpt>
      <trkpt lat="45.91591" lon="6.51265">
        <ele>2447.65</ele>
        <time>2016-02-21T12:41:51Z</time>
      </trkpt>
      <trkpt lat="45.91577" lon="6.51273">
        <ele>2447.65</ele>
        <time>2016-02-21T12:42:21Z</time>
      </trkpt>
      <trkpt lat="45.91588" lon="6.51266">
        <ele>2447.65</ele>
        <time>2016-02-21T12:42:51Z</time>
      </trkpt>
      <trkpt lat="45.91589" lon="6.51267">
        <ele>2447.65</ele>
        <time>2016-02-21T12:43:21Z</time>
      </trkpt>
      <trkpt lat="45.9159" lon="6.51268">
        <ele>2447.65</ele>
        <time>2016-02-21T12:43:51Z</time>
      </trkpt>
      <trkpt lat="45.91596" lon="6.5127">
        <ele>2447.65</ele>
        <time>2016-02-21T12:44:21Z</time>
      </trkpt>
      <trkpt lat="45.9159" lon="6.51274">
        <ele>2449.1</ele>
        <time>2016-02-21T12:44:51Z</time>
      </trkpt>
      <trkpt lat="45.91589" lon="6.51272">
        <ele>2448.13</ele>
        <time>2016-02-21T12:45:21Z</time>
      </trkpt>
      <trkpt lat="45.91591" lon="6.51295">
        <ele>2443.33</ele>
        <time>2016-02-21T12:45:51Z</time>
      </trkpt>
      <trkpt lat="45.91593" lon="6.51286">
        <ele>2443.81</ele>
        <time>2016-02-21T12:46:21Z</time>
      </trkpt>
      <trkpt lat="45.91589" lon="6.51287">
        <ele>2443.81</ele>
        <time>2016-02-21T12:46:51Z</time>
      </trkpt>
      <trkpt lat="45.91591" lon="6.51289">
        <ele>2442.85</ele>
        <time>2016-02-21T12:47:21Z</time>
      </trkpt>
      <trkpt lat="45.91589" lon="6.51287">
        <ele>2442.85</ele>
        <time>2016-02-21T12:47:51Z</time>
      </trkpt>
      <trkpt lat="45.91591" lon="6.51287">
        <ele>2443.33</ele>
        <time>2016-02-21T12:48:21Z</time>
      </trkpt>
      <trkpt lat="45.91591" lon="6.51282">
        <ele>2443.33</ele>
        <time>2016-02-21T12:48:50Z</time>
      </trkpt>
      <trkpt lat="45.91594" lon="6.51278">
        <ele>2442.85</ele>
        <time>2016-02-21T12:49:21Z</time>
      </trkpt>
      <trkpt lat="45.91593" lon="6.51276">
        <ele>2442.37</ele>
        <time>2016-02-21T12:49:51Z</time>
      </trkpt>
      <trkpt lat="45.91597" lon="6.5127">
        <ele>2439.48</ele>
        <time>2016-02-21T12:50:21Z</time>
      </trkpt>
      <trkpt lat="45.91613" lon="6.51253">
        <ele>2429.39</ele>
        <time>2016-02-21T12:50:51Z</time>
      </trkpt>
      <trkpt lat="45.91619" lon="6.51244">
        <ele>2422.66</ele>
        <time>2016-02-21T12:51:21Z</time>
      </trkpt>
      <trkpt lat="45.9165" lon="6.51217">
        <ele>2407.28</ele>
        <time>2016-02-21T12:51:51Z</time>
      </trkpt>
      <trkpt lat="45.91651" lon="6.51234">
        <ele>2406.32</ele>
        <time>2016-02-21T12:52:21Z</time>
      </trkpt>
      <trkpt lat="45.9166" lon="6.51249">
        <ele>2406.32</ele>
        <time>2016-02-21T12:52:51Z</time>
      </trkpt>
      <trkpt lat="45.9166" lon="6.51306">
        <ele>2406.8</ele>
        <time>2016-02-21T12:53:21Z</time>
      </trkpt>
      <trkpt lat="45.91669" lon="6.51378">
        <ele>2406.8</ele>
        <time>2016-02-21T12:53:51Z</time>
      </trkpt>
      <trkpt lat="45.91665" lon="6.51423">
        <ele>2386.13</ele>
        <time>2016-02-21T12:54:21Z</time>
      </trkpt>
      <trkpt lat="45.91673" lon="6.51402">
        <ele>2374.59</ele>
        <time>2016-02-21T12:54:51Z</time>
      </trkpt>
      <trkpt lat="45.91687" lon="6.51302">
        <ele>2364.02</ele>
        <time>2016-02-21T12:55:21Z</time>
      </trkpt>
      <trkpt lat="45.91693" lon="6.51286">
        <ele>2351.52</ele>
        <time>2016-02-21T12:55:51Z</time>
      </trkpt>
      <trkpt lat="45.91704" lon="6.51314">
        <ele>2334.7</ele>
        <time>2016-02-21T12:56:21Z</time>
      </trkpt>
      <trkpt lat="45.91723" lon="6.51348">
        <ele>2315.95</ele>
        <time>2016-02-21T12:56:51Z</time>
      </trkpt>
      <trkpt lat="45.91743" lon="6.51399">
        <ele>2296.73</ele>
        <time>2016-02-21T12:57:21Z</time>
      </trkpt>
      <trkpt lat="45.9176" lon="6.51416">
        <ele>2289.04</ele>
        <time>2016-02-21T12:57:51Z</time>
      </trkpt>
      <trkpt lat="45.91764" lon="6.51407">
        <ele>2288.08</ele>
        <time>2016-02-21T12:58:21Z</time>
      </trkpt>
      <trkpt lat="45.9177" lon="6.51401">
        <ele>2288.08</ele>
        <time>2016-02-21T12:58:51Z</time>
      </trkpt>
      <trkpt lat="45.91777" lon="6.5141">
        <ele>2285.67</ele>
        <time>2016-02-21T12:59:21Z</time>
      </trkpt>
      <trkpt lat="45.91824" lon="6.51412">
        <ele>2260.2</ele>
        <time>2016-02-21T12:59:51Z</time>
      </trkpt>
      <trkpt lat="45.91858" lon="6.51417">
        <ele>2236.64</ele>
        <time>2016-02-21T13:00:21Z</time>
      </trkpt>
      <trkpt lat="45.91907" lon="6.51436">
        <ele>2214.53</ele>
        <time>2016-02-21T13:00:51Z</time>
      </trkpt>
      <trkpt lat="45.9205" lon="6.51412">
        <ele>2197.71</ele>
        <time>2016-02-21T13:01:21Z</time>
      </trkpt>
      <trkpt lat="45.92048" lon="6.51415">
        <ele>2197.71</ele>
        <time>2016-02-21T13:01:51Z</time>
      </trkpt>
      <trkpt lat="45.92084" lon="6.51362">
        <ele>2190.5</ele>
        <time>2016-02-21T13:02:21Z</time>
      </trkpt>
      <trkpt lat="45.92099" lon="6.51349">
        <ele>2190.98</ele>
        <time>2016-02-21T13:02:51Z</time>
      </trkpt>
      <trkpt lat="45.92103" lon="6.5135">
        <ele>2190.5</ele>
        <time>2016-02-21T13:03:21Z</time>
      </trkpt>
      <trkpt lat="45.92118" lon="6.51352">
        <ele>2188.58</ele>
        <time>2016-02-21T13:03:51Z</time>
      </trkpt>
      <trkpt lat="45.92156" lon="6.51343">
        <ele>2180.41</ele>
        <time>2016-02-21T13:04:21Z</time>
      </trkpt>
      <trkpt lat="45.92181" lon="6.51263">
        <ele>2139.07</ele>
        <time>2016-02-21T13:04:51Z</time>
      </trkpt>
      <trkpt lat="45.92186" lon="6.51226">
        <ele>2118.4</ele>
        <time>2016-02-21T13:05:21Z</time>
      </trkpt>
      <trkpt lat="45.92199" lon="6.51117">
        <ele>2074.66</ele>
        <time>2016-02-21T13:05:51Z</time>
      </trkpt>
      <trkpt lat="45.92207" lon="6.5112">
        <ele>2075.62</ele>
        <time>2016-02-21T13:06:21Z</time>
      </trkpt>
      <trkpt lat="45.92205" lon="6.51113">
        <ele>2070.34</ele>
        <time>2016-02-21T13:06:51Z</time>
      </trkpt>
      <trkpt lat="45.92202" lon="6.51112">
        <ele>2071.3</ele>
        <time>2016-02-21T13:07:21Z</time>
      </trkpt>
      <trkpt lat="45.92206" lon="6.51115">
        <ele>2069.86</ele>
        <time>2016-02-21T13:07:51Z</time>
      </trkpt>
      <trkpt lat="45.92208" lon="6.51116">
        <ele>2070.34</ele>
        <time>2016-02-21T13:08:21Z</time>
      </trkpt>
      <trkpt lat="45.92259" lon="6.51116">
        <ele>2061.2</ele>
        <time>2016-02-21T13:08:51Z</time>
      </trkpt>
      <trkpt lat="45.9232" lon="6.5109">
        <ele>2038.61</ele>
        <time>2016-02-21T13:09:21Z</time>
      </trkpt>
      <trkpt lat="45.92358" lon="6.51005">
        <ele>1999.68</ele>
        <time>2016-02-21T13:09:51Z</time>
      </trkpt>
      <trkpt lat="45.9236" lon="6.50992">
        <ele>1993.91</ele>
        <time>2016-02-21T13:10:21Z</time>
      </trkpt>
      <trkpt lat="45.92356" lon="6.50938">
        <ele>1971.8</ele>
        <time>2016-02-21T13:10:51Z</time>
      </trkpt>
      <trkpt lat="45.92362" lon="6.50939">
        <ele>1968.92</ele>
        <time>2016-02-21T13:11:21Z</time>
      </trkpt>
      <trkpt lat="45.92369" lon="6.50938">
        <ele>1968.92</ele>
        <time>2016-02-21T13:11:51Z</time>
      </trkpt>
      <trkpt lat="45.92385" lon="6.50912">
        <ele>1966.51</ele>
        <time>2016-02-21T13:12:21Z</time>
      </trkpt>
      <trkpt lat="45.92386" lon="6.50912">
        <ele>1965.07</ele>
        <time>2016-02-21T13:12:51Z</time>
      </trkpt>
      <trkpt lat="45.92387" lon="6.50905">
        <ele>1966.03</ele>
        <time>2016-02-21T13:13:21Z</time>
      </trkpt>
      <trkpt lat="45.924" lon="6.50918">
        <ele>1963.63</ele>
        <time>2016-02-21T13:13:51Z</time>
      </trkpt>
      <trkpt lat="45.9243" lon="6.50864">
        <ele>1930.46</ele>
        <time>2016-02-21T13:14:21Z</time>
      </trkpt>
      <trkpt lat="45.92421" lon="6.50871">
        <ele>1930.46</ele>
        <time>2016-02-21T13:14:51Z</time>
      </trkpt>
      <trkpt lat="45.92433" lon="6.50843">
        <ele>1920.85</ele>
        <time>2016-02-21T13:15:21Z</time>
      </trkpt>
      <trkpt lat="45.92434" lon="6.50797">
        <ele>1901.63</ele>
        <time>2016-02-21T13:15:51Z</time>
      </trkpt>
      <trkpt lat="45.92433" lon="6.50792">
        <ele>1902.11</ele>
        <time>2016-02-21T13:16:21Z</time>
      </trkpt>
      <trkpt lat="45.9242" lon="6.50701">
        <ele>1866.54</ele>
        <time>2016-02-21T13:16:51Z</time>
      </trkpt>
      <trkpt lat="45.92396" lon="6.50629">
        <ele>1858.37</ele>
        <time>2016-02-21T13:17:21Z</time>
      </trkpt>
      <trkpt lat="45.92362" lon="6.50528">
        <ele>1843.47</ele>
        <time>2016-02-21T13:17:51Z</time>
      </trkpt>
      <trkpt lat="45.92375" lon="6.50507">
        <ele>1831.93</ele>
        <time>2016-02-21T13:18:21Z</time>
      </trkpt>
      <trkpt lat="45.92382" lon="6.50468">
        <ele>1815.59</ele>
        <time>2016-02-21T13:18:51Z</time>
      </trkpt>
      <trkpt lat="45.92414" lon="6.50439">
        <ele>1792.52</ele>
        <time>2016-02-21T13:19:21Z</time>
      </trkpt>
      <trkpt lat="45.92411" lon="6.50382">
        <ele>1773.77</ele>
        <time>2016-02-21T13:19:51Z</time>
      </trkpt>
      <trkpt lat="45.92423" lon="6.50325">
        <ele>1756.95</ele>
        <time>2016-02-21T13:20:21Z</time>
      </trkpt>
      <trkpt lat="45.92448" lon="6.50183">
        <ele>1738.2</ele>
        <time>2016-02-21T13:20:51Z</time>
      </trkpt>
      <trkpt lat="45.92446" lon="6.50184">
        <ele>1739.16</ele>
        <time>2016-02-21T13:21:21Z</time>
      </trkpt>
      <trkpt lat="45.92486" lon="6.50235">
        <ele>1719.46</ele>
        <time>2016-02-21T13:21:51Z</time>
      </trkpt>
      <trkpt lat="45.92518" lon="6.50209">
        <ele>1698.79</ele>
        <time>2016-02-21T13:22:21Z</time>
      </trkpt>
      <trkpt lat="45.92533" lon="6.50183">
        <ele>1685.81</ele>
        <time>2016-02-21T13:22:51Z</time>
      </trkpt>
      <trkpt lat="45.9254" lon="6.50146">
        <ele>1668.99</ele>
        <time>2016-02-21T13:23:21Z</time>
      </trkpt>
      <trkpt lat="45.92558" lon="6.50115">
        <ele>1652.16</ele>
        <time>2016-02-21T13:23:51Z</time>
      </trkpt>
      <trkpt lat="45.92546" lon="6.5007">
        <ele>1645.91</ele>
        <time>2016-02-21T13:24:21Z</time>
      </trkpt>
      <trkpt lat="45.92544" lon="6.50032">
        <ele>1640.63</ele>
        <time>2016-02-21T13:24:51Z</time>
      </trkpt>
      <trkpt lat="45.92525" lon="6.49946">
        <ele>1631.49</ele>
        <time>2016-02-21T13:25:21Z</time>
      </trkpt>
      <trkpt lat="45.92525" lon="6.49886">
        <ele>1626.21</ele>
        <time>2016-02-21T13:25:51Z</time>
      </trkpt>
      <trkpt lat="45.9253" lon="6.49849">
        <ele>1622.36</ele>
        <time>2016-02-21T13:26:21Z</time>
      </trkpt>
      <trkpt lat="45.92531" lon="6.49819">
        <ele>1612.27</ele>
        <time>2016-02-21T13:26:51Z</time>
      </trkpt>
      <trkpt lat="45.92531" lon="6.49811">
        <ele>1607.94</ele>
        <time>2016-02-21T13:27:21Z</time>
      </trkpt>
      <trkpt lat="45.92533" lon="6.49807">
        <ele>1601.21</ele>
        <time>2016-02-21T13:27:51Z</time>
      </trkpt>
      <trkpt lat="45.92543" lon="6.49802">
        <ele>1592.56</ele>
        <time>2016-02-21T13:28:21Z</time>
      </trkpt>
      <trkpt lat="45.92551" lon="6.49797">
        <ele>1591.6</ele>
        <time>2016-02-21T13:28:51Z</time>
      </trkpt>
      <trkpt lat="45.92561" lon="6.49751">
        <ele>1576.7</ele>
        <time>2016-02-21T13:29:21Z</time>
      </trkpt>
      <trkpt lat="45.9256" lon="6.49745">
        <ele>1570.45</ele>
        <time>2016-02-21T13:29:51Z</time>
      </trkpt>
      <trkpt lat="45.92567" lon="6.49745">
        <ele>1562.76</ele>
        <time>2016-02-21T13:30:21Z</time>
      </trkpt>
      <trkpt lat="45.92574" lon="6.49721">
        <ele>1558.43</ele>
        <time>2016-02-21T13:30:51Z</time>
      </trkpt>
      <trkpt lat="45.92583" lon="6.49708">
        <ele>1548.82</ele>
        <time>2016-02-21T13:31:21Z</time>
      </trkpt>
      <trkpt lat="45.92604" lon="6.49651">
        <ele>1533.44</ele>
        <time>2016-02-21T13:31:51Z</time>
      </trkpt>
      <trkpt lat="45.92611" lon="6.49617">
        <ele>1530.08</ele>
        <time>2016-02-21T13:32:21Z</time>
      </trkpt>
      <trkpt lat="45.92635" lon="6.49525">
        <ele>1518.06</ele>
        <time>2016-02-21T13:32:51Z</time>
      </trkpt>
      <trkpt lat="45.92703" lon="6.49447">
        <ele>1501.72</ele>
        <time>2016-02-21T13:33:21Z</time>
      </trkpt>
      <trkpt lat="45.92713" lon="6.49448">
        <ele>1501.72</ele>
        <time>2016-02-21T13:33:51Z</time>
      </trkpt>
      <trkpt lat="45.92719" lon="6.49443">
        <ele>1504.12</ele>
        <time>2016-02-21T13:34:21Z</time>
      </trkpt>
      <trkpt lat="45.92718" lon="6.49445">
        <ele>1503.64</ele>
        <time>2016-02-21T13:34:51Z</time>
      </trkpt>
      <trkpt lat="45.92718" lon="6.49446">
        <ele>1504.12</ele>
        <time>2016-02-21T13:35:21Z</time>
      </trkpt>
      <trkpt lat="45.92718" lon="6.49445">
        <ele>1503.64</ele>
        <time>2016-02-21T13:35:51Z</time>
      </trkpt>
      <trkpt lat="45.92717" lon="6.4944">
        <ele>1503.16</ele>
        <time>2016-02-21T13:36:21Z</time>
      </trkpt>
      <trkpt lat="45.92704" lon="6.4932">
        <ele>1492.1</ele>
        <time>2016-02-21T13:36:51Z</time>
      </trkpt>
      <trkpt lat="45.92646" lon="6.49261">
        <ele>1491.14</ele>
        <time>2016-02-21T13:37:21Z</time>
      </trkpt>
      <trkpt lat="45.92634" lon="6.4925">
        <ele>1493.06</ele>
        <time>2016-02-21T13:37:51Z</time>
      </trkpt>
      <trkpt lat="45.92618" lon="6.49232">
        <ele>1492.1</ele>
        <time>2016-02-21T13:38:21Z</time>
      </trkpt>
      <trkpt lat="45.92605" lon="6.49228">
        <ele>1496.43</ele>
        <time>2016-02-21T13:38:51Z</time>
      </trkpt>
      <trkpt lat="45.92587" lon="6.49225">
        <ele>1495.95</ele>
        <time>2016-02-21T13:39:21Z</time>
      </trkpt>
      <trkpt lat="45.92568" lon="6.4922">
        <ele>1498.35</ele>
        <time>2016-02-21T13:39:51Z</time>
      </trkpt>
      <trkpt lat="45.92545" lon="6.49217">
        <ele>1497.39</ele>
        <time>2016-02-21T13:40:21Z</time>
      </trkpt>
      <trkpt lat="45.92526" lon="6.49206">
        <ele>1499.79</ele>
        <time>2016-02-21T13:40:51Z</time>
      </trkpt>
      <trkpt lat="45.925" lon="6.49196">
        <ele>1498.83</ele>
        <time>2016-02-21T13:41:21Z</time>
      </trkpt>
      <trkpt lat="45.92485" lon="6.49177">
        <ele>1500.27</ele>
        <time>2016-02-21T13:41:51Z</time>
      </trkpt>
      <trkpt lat="45.92462" lon="6.49146">
        <ele>1501.24</ele>
        <time>2016-02-21T13:42:21Z</time>
      </trkpt>
      <trkpt lat="45.92327" lon="6.49043">
        <ele>1477.68</ele>
        <time>2016-02-21T13:42:51Z</time>
      </trkpt>
      <trkpt lat="45.92217" lon="6.4893">
        <ele>1459.42</ele>
        <time>2016-02-21T13:43:21Z</time>
      </trkpt>
      <trkpt lat="45.92171" lon="6.48872">
        <ele>1455.57</ele>
        <time>2016-02-21T13:43:51Z</time>
      </trkpt>
      <trkpt lat="45.92171" lon="6.48868">
        <ele>1456.05</ele>
        <time>2016-02-21T13:44:21Z</time>
      </trkpt>
      <trkpt lat="45.92171" lon="6.48872">
        <ele>1456.05</ele>
        <time>2016-02-21T13:44:51Z</time>
      </trkpt>
      <trkpt lat="45.92171" lon="6.48856">
        <ele>1457.02</ele>
        <time>2016-02-21T13:45:21Z</time>
      </trkpt>
      <trkpt lat="45.92161" lon="6.4886">
        <ele>1456.53</ele>
        <time>2016-02-21T13:45:51Z</time>
      </trkpt>
      <trkpt lat="45.92163" lon="6.48852">
        <ele>1456.53</ele>
        <time>2016-02-21T13:46:21Z</time>
      </trkpt>
      <trkpt lat="45.92172" lon="6.48847">
        <ele>1457.5</ele>
        <time>2016-02-21T13:46:51Z</time>
      </trkpt>
      <trkpt lat="45.92176" lon="6.48822">
        <ele>1458.94</ele>
        <time>2016-02-21T13:47:21Z</time>
      </trkpt>
      <trkpt lat="45.92178" lon="6.48793">
        <ele>1460.38</ele>
        <time>2016-02-21T13:47:51Z</time>
      </trkpt>
      <trkpt lat="45.92171" lon="6.48762">
        <ele>1462.3</ele>
        <time>2016-02-21T13:48:21Z</time>
      </trkpt>
      <trkpt lat="45.92162" lon="6.48736">
        <ele>1463.74</ele>
        <time>2016-02-21T13:48:51Z</time>
      </trkpt>
      <trkpt lat="45.92151" lon="6.48703">
        <ele>1465.67</ele>
        <time>2016-02-21T13:49:21Z</time>
      </trkpt>
      <trkpt lat="45.92132" lon="6.48678">
        <ele>1464.71</ele>
        <time>2016-02-21T13:49:51Z</time>
      </trkpt>
      <trkpt lat="45.92131" lon="6.48678">
        <ele>1466.15</ele>
        <time>2016-02-21T13:50:21Z</time>
      </trkpt>
      <trkpt lat="45.92129" lon="6.48677">
        <ele>1465.67</ele>
        <time>2016-02-21T13:50:51Z</time>
      </trkpt>
      <trkpt lat="45.92127" lon="6.48666">
        <ele>1465.19</ele>
        <time>2016-02-21T13:51:21Z</time>
      </trkpt>
      <trkpt lat="45.92137" lon="6.48615">
        <ele>1462.78</ele>
        <time>2016-02-21T13:51:51Z</time>
      </trkpt>
      <trkpt lat="45.92228" lon="6.48451">
        <ele>1446.44</ele>
        <time>2016-02-21T13:52:21Z</time>
      </trkpt>
      <trkpt lat="45.92269" lon="6.4842">
        <ele>1444.52</ele>
        <time>2016-02-21T13:52:51Z</time>
      </trkpt>
      <trkpt lat="45.92294" lon="6.484">
        <ele>1442.6</ele>
        <time>2016-02-21T13:53:21Z</time>
      </trkpt>
      <trkpt lat="45.92324" lon="6.48382">
        <ele>1441.15</ele>
        <time>2016-02-21T13:53:51Z</time>
      </trkpt>
      <trkpt lat="45.92352" lon="6.48368">
        <ele>1441.15</ele>
        <time>2016-02-21T13:54:21Z</time>
      </trkpt>
      <trkpt lat="45.92394" lon="6.48347">
        <ele>1439.23</ele>
        <time>2016-02-21T13:54:51Z</time>
      </trkpt>
      <trkpt lat="45.92405" lon="6.48347">
        <ele>1437.31</ele>
        <time>2016-02-21T13:55:21Z</time>
      </trkpt>
      <trkpt lat="45.924" lon="6.48347">
        <ele>1438.75</ele>
        <time>2016-02-21T13:55:51Z</time>
      </trkpt>
      <trkpt lat="45.92398" lon="6.48342">
        <ele>1438.27</ele>
        <time>2016-02-21T13:56:21Z</time>
      </trkpt>
      <trkpt lat="45.92399" lon="6.48339">
        <ele>1438.75</ele>
        <time>2016-02-21T13:56:51Z</time>
      </trkpt>
      <trkpt lat="45.924" lon="6.48339">
        <ele>1438.27</ele>
        <time>2016-02-21T13:57:21Z</time>
      </trkpt>
      <trkpt lat="45.92402" lon="6.4834">
        <ele>1438.27</ele>
        <time>2016-02-21T13:57:51Z</time>
      </trkpt>
      <trkpt lat="45.92403" lon="6.48337">
        <ele>1436.83</ele>
        <time>2016-02-21T13:58:07Z</time>
      </trkpt>
    </trkseg>
  </trk>
</gpx>